Data for 06/27/2010

Time Sea-Level Adjusted Pressure Absolute Pressure Temperature Relative Humidity Dew Point Precipitation   
(mb) (inHg) (mb) (inHg) (C) (F) (%) (C) (F) (mm) (in)
00:01 1020 30.12 850 25.1 10.2 50.3 71 5.2 41.4 10.58 0.417
00:02 1020 30.12 850 25.1 10.2 50.3 72 5.3 41.5 10.54 0.415
00:03 1020 30.12 850 25.1 10.1 50.1 72 5.2 41.4 10.47 0.412
00:04 1021 30.15 850 25.1 10 50.1 72 5.2 41.4 10.42 0.41
00:05 1021 30.15 850 25.1 10 50 71 5.1 41.1 10.42 0.41
00:06 1021 30.15 850 25.1 10.1 50.1 71 5 41.1 10.42 0.41
00:07 1021 30.15 850 25.1 10 50.1 71 5.1 41.2 10.41 0.41
00:08 1021 30.15 850 25.1 10 50 71 5 41 10.43 0.411
00:09 1021 30.15 850 25.1 10 50.1 71 5 41 10.44 0.411
00:10 1021 30.15 850 25.1 10.1 50.1 72 5.3 41.5 10.43 0.411
00:11 1021 30.15 850 25.1 9.9 49.9 74 5.6 42 10.23 0.403
00:12 1021 30.15 850 25.1 9.6 49.3 76 5.5 41.9 9.85 0.388
00:13 1021 30.15 850 25.1 9.2 48.6 76 5.3 41.5 9.55 0.376
00:14 1021 30.15 850 25.1 9.2 48.5 75 5 41 9.57 0.377
00:15 1021 30.15 850 25.1 9.3 48.7 74 4.9 40.8 9.71 0.382
00:16 1021 30.15 850 25.1 9.5 49 71 4.4 40 9.85 0.388
00:17 1021 30.15 850 25.1 9.9 49.8 68 4.3 39.8 10.36 0.408
00:18 1021 30.15 850 25.1 10.4 50.6 64 4 39.2 10.75 0.423
00:19 1021 30.15 850 25.1 10.8 51.5 64 4.4 39.9 11.07 0.436
00:20 1021 30.15 850 25.1 11 51.8 64 4.5 40.1 11.21 0.441
00:21 1021 30.15 850 25.1 11.1 52 63 4.5 40 11.32 0.446
00:22 1021 30.15 850 25.1 11.2 52.2 63 4.5 40 11.42 0.45
00:23 1021 30.15 850 25.1 11.2 52.2 64 4.7 40.4 11.46 0.451
00:24 1021 30.15 850 25.1 11.1 52 64 4.7 40.5 11.4 0.449
00:25 1021 30.15 850 25.1 10.9 51.7 66 4.9 40.8 11.27 0.444
00:26 1021 30.15 850 25.1 10.7 51.3 68 5.1 41.1 11.04 0.435
00:27 1021 30.15 850 25.1 10.4 50.6 69 5.1 41.1 10.81 0.426
00:28 1021 30.15 850 25.1 10.1 50.2 71 5 41.1 10.59 0.417
00:29 1021 30.15 850 25.1 10 50 71 5 40.9 10.42 0.41
00:30 1021 30.15 850 25.1 9.9 49.8 71 5 41 10.35 0.407
00:31 1021 30.15 850 25.1 9.8 49.7 71 4.9 40.9 10.24 0.403
00:32 1021 30.15 850 25.1 9.8 49.6 72 5 41 10.16 0.4
00:33 1021 30.15 850 25.1 9.6 49.3 73 5 41 10.04 0.395
00:34 1021 30.15 850 25.1 9.5 49.1 74 5.1 41.1 9.92 0.391
00:35 1021 30.15 850 25.1 9.4 48.9 74 5.1 41.1 9.79 0.385
00:36 1021 30.15 850 25.1 9.2 48.6 75 5.1 41.1 9.62 0.379
00:37 1021 30.15 850 25.1 9 48.3 76 5 41 9.53 0.375
00:38 1021 30.15 850 25.1 9 48.1 77 5.1 41.1 9.39 0.37
00:39 1021 30.15 850 25.1 8.9 47.9 77 5 41 9.3 0.366
00:40 1021 30.15 850 25.1 8.9 47.9 76 4.9 40.8 9.26 0.365
00:41 1021 30.15 850 25.1 9 48.1 76 4.9 40.9 9.31 0.367
00:42 1021 30.15 850 25.1 9.1 48.3 75 4.9 40.9 9.45 0.372
00:43 1021 30.15 850 25.1 9.2 48.5 75 5.1 41.1 9.52 0.375
00:44 1021 30.15 850 25.1 9.2 48.5 75 5 41.1 9.51 0.374
00:45 1021 30.15 850 25.1 9.2 48.5 75 5.1 41.1 9.51 0.374
00:46 1021 30.15 850 25.1 9.2 48.5 76 5.1 41.2 9.54 0.376
00:47 1021 30.15 850 25.1 9.2 48.5 76 5.2 41.4 9.52 0.375
00:48 1021 30.15 850 25.1 9 48.2 77 5.2 41.3 9.41 0.37
00:49 1021 30.15 850 25.1 8.9 48.1 78 5.2 41.4 9.33 0.367
00:50 1021 30.15 850 25.1 8.8 47.9 78 5.3 41.5 9.24 0.364
00:51 1021 30.15 850 25.1 8.7 47.7 79 5.4 41.7 9.1 0.358
00:52 1021 30.15 850 25.1 8.6 47.5 80 5.4 41.7 9.04 0.356
00:53 1021 30.15 850 25.1 8.5 47.3 81 5.4 41.7 8.9 0.35
00:54 1021 30.15 850 25.1 8.4 47.2 81 5.4 41.7 8.81 0.347
00:55 1021 30.15 850 25.1 8.3 47 82 5.4 41.8 8.72 0.343
00:56 1021 30.15 850 25.1 8.2 46.7 83 5.4 41.7 8.58 0.338
00:57 1021 30.15 850 25.1 8 46.5 83 5.3 41.6 8.42 0.331
00:58 1021 30.15 850 25.1 7.9 46.2 83 5.3 41.5 8.29 0.326
00:59 1021 30.15 850 25.1 7.9 46.1 84 5.3 41.6 8.26 0.325
01:00 1021 30.15 850 25.1 7.9 46.1 84 5.4 41.6 8.23 0.324
01:01 1021 30.15 850 25.1 7.9 46.1 84 5.3 41.6 8.24 0.324
01:02 1021 30.15 850 25.1 7.9 46.2 84 5.3 41.6 8.25 0.325
01:03 1021 30.15 850 25.1 8 46.3 84 5.4 41.7 8.32 0.328
01:04 1021 30.15 850 25.1 8.1 46.5 83 5.4 41.7 8.35 0.329
01:05 1021 30.15 850 25.1 8.1 46.5 83 5.4 41.6 8.32 0.328
01:06 1021 30.15 850 25.1 8 46.4 83 5.4 41.6 8.33 0.328
01:07 1021 30.15 850 25.1 8.2 46.7 82 5.4 41.6 8.37 0.33
01:08 1021 30.15 850 25.1 8.2 46.8 82 5.4 41.6 8.43 0.332
01:09 1021 30.15 850 25.1 8.2 46.8 82 5.4 41.7 8.47 0.333
01:10 1021 30.15 850 25.1 8.2 46.7 82 5.4 41.7 8.46 0.333
01:11 1021 30.15 850 25.1 8.2 46.7 83 5.4 41.8 8.44 0.332
01:12 1021 30.15 850 25.1 8 46.5 83 5.4 41.7 8.35 0.329
01:13 1021 30.15 850 25.1 8 46.3 83 5.3 41.5 8.3 0.327
01:14 1021 30.15 850 25.1 7.9 46.2 83 5.3 41.5 8.21 0.323
01:15 1021 30.15 850 25.1 7.8 46.1 84 5.2 41.4 8.16 0.321
01:16 1021 30.15 850 25.1 7.8 46.1 84 5.3 41.5 8.15 0.321
01:17 1021 30.15 850 25.1 7.8 46 84 5.3 41.5 8.11 0.319
01:18 1021 30.15 850 25.1 7.7 45.9 85 5.3 41.5 8.03 0.316
01:19 1021 30.15 850 25.1 7.6 45.8 85 5.3 41.5 7.99 0.315
01:20 1021 30.15 850 25.1 7.5 45.6 85 5.3 41.5 7.89 0.311
01:21 1021 30.15 850 25.1 7.5 45.4 86 5.2 41.4 7.85 0.309
01:22 1021 30.15 850 25.1 7.4 45.3 86 5.2 41.3 7.75 0.305
01:23 1021 30.15 850 25.1 7.3 45.2 85 5.1 41.1 7.71 0.304
01:24 1021 30.15 850 25.1 7.4 45.3 85 5.1 41.1 7.68 0.302
01:25 1021 30.15 850 25.1 7.4 45.2 85 5 41.1 7.69 0.303
01:26 1021 30.15 850 25.1 7.3 45.2 86 5.1 41.1 7.67 0.302
01:27 1021 30.15 850 25.1 7.3 45.2 85 5 41 7.66 0.302
01:28 1021 30.15 850 25.1 7.3 45.2 85 5 40.9 7.61 0.3
01:29 1021 30.15 850 25.1 7.3 45.1 85 5 41 7.57 0.298
01:30 1021 30.15 850 25.1 7.2 44.9 86 5 41 7.44 0.293
01:31 1021 30.15 850 25.1 7.1 44.7 87 5 41 7.44 0.293
01:32 1021 30.15 850 25.1 7.1 44.8 86 5 40.9 7.51 0.296
01:33 1021 30.15 850 25.1 7.3 45.1 85 4.9 40.9 7.57 0.298
01:34 1021 30.15 850 25.1 7.3 45.2 85 4.9 40.9 7.6 0.299
01:35 1021 30.15 850 25.1 7.4 45.3 85 5 40.9 7.63 0.3
01:36 1021 30.15 850 25.1 7.4 45.2 85 5 40.9 7.62 0.3
01:37 1021 30.15 850 25.1 7.3 45.2 85 5 41 7.62 0.3
01:38 1021 30.15 850 25.1 7.3 45.1 85 5 40.9 7.58 0.298
01:39 1021 30.15 850 25.1 7.3 45.2 85 5 41 7.6 0.299
01:40 1021 30.15 850 25.1 7.4 45.2 85 5 40.9 7.64 0.301
01:41 1021 30.15 850 25.1 7.4 45.3 85 5 41 7.65 0.301
01:42 1021 30.15 850 25.1 7.4 45.3 84 4.9 40.9 7.7 0.303
01:43 1021 30.15 850 25.1 7.4 45.3 84 4.9 40.9 7.71 0.304
01:44 1021 30.15 850 25.1 7.4 45.3 84 5 40.9 7.72 0.304
01:45 1021 30.15 850 25.1 7.5 45.4 84 5 40.9 7.78 0.306
01:46 1021 30.15 850 25.1 7.5 45.5 84 5 40.9 7.8 0.307
01:47 1021 30.15 850 25.1 7.5 45.6 84 5 41 7.85 0.309
01:48 1021 30.15 850 25.1 7.6 45.6 84 5 41 7.87 0.31
01:49 1021 30.15 850 25.1 7.6 45.7 83 5 41 7.9 0.311
01:50 1021 30.15 850 25.1 7.6 45.7 84 5 41 7.93 0.312
01:51 1021 30.15 850 25.1 7.6 45.7 84 5.1 41.1 7.95 0.313
01:52 1021 30.15 850 25.1 7.6 45.8 84 5.1 41.1 7.95 0.313
01:53 1021 30.15 850 25.1 7.6 45.7 84 5.1 41.1 7.94 0.313
01:54 1021 30.15 850 25.1 7.6 45.7 84 5.1 41.1 7.96 0.313
01:55 1021 30.15 850 25.1 7.6 45.7 84 5.1 41.1 7.93 0.312
01:56 1021 30.15 850 25.1 7.6 45.7 84 5 41 7.9 0.311
01:57 1021 30.15 850 25.1 7.6 45.7 84 5 41.1 7.95 0.313
01:58 1021 30.15 850 25.1 7.6 45.7 83 5 41 7.99 0.315
01:59 1021 30.15 850 25.1 7.7 45.9 83 5 41 7.98 0.314
02:00 1021 30.15 850 25.1 7.8 46 82 5 40.9 8.08 0.318
02:01 1021 30.15 850 25.1 7.8 46.1 82 4.9 40.9 8.1 0.319
02:02 1021 30.15 850 25.1 7.8 46.1 82 4.9 40.8 8.11 0.319
02:03 1021 30.15 850 25.1 8 46.3 81 4.9 40.8 8.25 0.325
02:04 1021 30.15 850 25.1 8 46.4 80 4.9 40.7 8.3 0.327
02:05 1021 30.15 850 25.1 8.1 46.6 80 4.9 40.7 8.36 0.329
02:06 1021 30.15 850 25.1 8.2 46.7 79 4.8 40.6 8.45 0.333
02:07 1021 30.15 850 25.1 8.3 46.9 79 4.8 40.6 8.53 0.336
02:08 1021 30.15 850 25.1 8.3 47 79 4.8 40.7 8.58 0.338
02:09 1021 30.15 850 25.1 8.3 46.9 78 4.8 40.6 8.59 0.338
02:10 1021 30.15 850 25.1 8.3 47 78 4.7 40.5 8.64 0.34
02:11 1021 30.15 850 25.1 8.4 47 78 4.7 40.4 8.68 0.342
02:12 1021 30.15 850 25.1 8.4 47.2 78 4.7 40.5 8.66 0.341
02:13 1021 30.15 850 25.1 8.4 47.1 77 4.7 40.4 8.71 0.343
02:14 1021 30.15 850 25.1 8.5 47.2 77 4.7 40.5 8.72 0.343
02:15 1021 30.15 850 25.1 8.5 47.2 77 4.7 40.5 8.74 0.344
02:16 1021 30.15 850 25.1 8.4 47.2 77 4.7 40.4 8.76 0.345
02:17 1021 30.15 850 25.1 8.4 47.2 77 4.7 40.4 8.74 0.344
02:18 1021 30.15 850 25.1 8.5 47.2 77 4.7 40.4 8.79 0.346
02:19 1021 30.15 850 25.1 8.5 47.3 77 4.7 40.5 8.78 0.346
02:20 1021 30.15 850 25.1 8.5 47.2 77 4.7 40.5 8.83 0.348
02:21 1021 30.15 850 25.1 8.5 47.2 77 4.7 40.5 8.78 0.346
02:22 1021 30.15 850 25.1 8.4 47.1 78 4.8 40.6 8.76 0.345
02:23 1021 30.15 850 25.1 8.3 47 78 4.7 40.5 8.7 0.343
02:24 1021 30.15 850 25.1 8.3 46.9 79 4.8 40.6 8.64 0.34
02:25 1021 30.15 850 25.1 8.2 46.8 78 4.7 40.4 8.56 0.337
02:26 1021 30.15 850 25.1 8.2 46.7 78 4.7 40.4 8.59 0.338
02:27 1021 30.15 850 25.1 8.2 46.8 78 4.7 40.5 8.52 0.335
02:28 1021 30.15 850 25.1 8.2 46.7 79 4.7 40.4 8.52 0.335
02:29 1021 30.15 850 25.1 8.1 46.6 79 4.7 40.4 8.48 0.334
02:30 1021 30.15 850 25.1 8 46.5 79 4.7 40.4 8.47 0.333
02:31 1021 30.15 850 25.1 7.9 46.3 80 4.7 40.4 8.35 0.329
02:32 1021 30.15 850 25.1 7.9 46.2 80 4.7 40.4 8.29 0.326
02:33 1021 30.15 850 25.1 7.8 46 81 4.7 40.4 8.16 0.321
02:34 1021 30.15 850 25.1 7.7 45.9 81 4.6 40.3 8.13 0.32
02:35 1021 30.15 850 25.1 7.8 46 81 4.7 40.4 8.14 0.32
02:36 1021 30.15 850 25.1 7.7 45.9 81 4.7 40.4 8.13 0.32
02:37 1021 30.15 850 25.1 7.7 45.9 81 4.7 40.4 8.09 0.319
02:38 1021 30.15 850 25.1 7.7 45.9 81 4.7 40.4 8.09 0.319
02:39 1021 30.15 850 25.1 7.7 45.9 81 4.7 40.4 8.08 0.318
02:40 1021 30.15 850 25.1 7.7 45.8 81 4.7 40.4 8.05 0.317
02:41 1021 30.15 850 25.1 7.7 45.8 81 4.7 40.4 8.05 0.317
02:42 1021 30.15 850 25.1 7.6 45.7 82 4.7 40.5 7.98 0.314
02:43 1021 30.15 850 25.1 7.5 45.6 82 4.7 40.5 7.94 0.313
02:44 1021 30.15 850 25.1 7.4 45.4 83 4.7 40.5 7.85 0.309
02:45 1021 30.15 850 25.1 7.4 45.3 83 4.7 40.5 7.8 0.307
02:46 1021 30.15 850 25.1 7.3 45.2 83 4.7 40.4 7.78 0.306
02:47 1021 30.15 850 25.1 7.3 45.2 83 4.7 40.4 7.73 0.304
02:48 1021 30.15 850 25.1 7.4 45.2 83 4.7 40.4 7.69 0.303
02:49 1021 30.15 850 25.1 7.4 45.2 83 4.7 40.4 7.73 0.304
02:50 1021 30.15 850 25.1 7.4 45.3 82 4.6 40.3 7.72 0.304
02:51 1021 30.15 850 25.1 7.4 45.4 82 4.5 40.1 7.74 0.305
02:52 1021 30.15 850 25.1 7.5 45.5 81 4.4 40 7.79 0.307
02:53 1021 30.15 850 25.1 7.6 45.7 80 4.5 40.1 7.91 0.311
02:54 1021 30.15 850 25.1 7.7 45.9 80 4.5 40 7.96 0.313
02:55 1021 30.15 850 25.1 7.7 45.9 80 4.5 40.1 8.04 0.317
02:56 1021 30.15 850 25.1 7.7 45.9 80 4.6 40.3 8.08 0.318
02:57 1021 30.15 850 25.1 7.7 45.8 81 4.6 40.3 8.02 0.316
02:58 1021 30.15 850 25.1 7.6 45.7 81 4.6 40.4 7.98 0.314
02:59 1021 30.15 850 25.1 7.6 45.6 82 4.6 40.3 7.92 0.312
03:00 1021 30.15 850 25.1 7.5 45.5 82 4.6 40.3 7.88 0.31
03:01 1021 30.15 850 25.1 7.5 45.5 82 4.6 40.2 7.81 0.307
03:02 1021 30.15 850 25.1 7.5 45.4 82 4.6 40.2 7.82 0.308
03:03 1021 30.15 850 25.1 7.4 45.4 82 4.5 40.1 7.81 0.307
03:04 1021 30.15 850 25.1 7.4 45.3 82 4.5 40.2 7.79 0.307
03:05 1021 30.15 850 25.1 7.4 45.2 82 4.5 40.1 7.73 0.304
03:06 1021 30.15 850 25.1 7.4 45.3 82 4.6 40.2 7.71 0.304
03:07 1021 30.15 850 25.1 7.3 45.1 82 4.5 40.1 7.69 0.303
03:08 1021 30.15 850 25.1 7.3 45.1 83 4.5 40.1 7.62 0.3
03:09 1021 30.15 850 25.1 7.3 45.1 82 4.5 40.1 7.61 0.3
03:10 1021 30.15 850 25.1 7.3 45.1 82 4.5 40.1 7.62 0.3
03:11 1021 30.15 850 25.1 7.4 45.3 82 4.4 40 7.73 0.304
03:12 1021 30.15 850 25.1 7.5 45.4 81 4.4 39.9 7.73 0.304
03:13 1021 30.15 850 25.1 7.5 45.6 81 4.4 39.9 7.82 0.308
03:14 1021 30.15 850 25.1 7.5 45.6 81 4.4 40 7.86 0.309
03:15 1021 30.15 850 25.1 7.5 45.6 80 4.4 39.9 7.86 0.309
03:16 1021 30.15 850 25.1 7.6 45.8 80 4.4 39.9 7.94 0.313
03:17 1021 30.15 850 25.1 7.8 46 79 4.3 39.8 8.06 0.317
03:18 1021 30.15 850 25.1 7.9 46.2 78 4.3 39.7 8.17 0.322
03:19 1021 30.15 850 25.1 8 46.5 78 4.4 39.9 8.37 0.33
03:20 1021 30.15 850 25.1 8.1 46.6 77 4.4 39.9 8.4 0.331
03:21 1021 30.15 850 25.1 8.3 46.9 77 4.4 39.9 8.53 0.336
03:22 1021 30.15 850 25.1 8.3 46.9 76 4.4 39.9 8.63 0.34
03:23 1021 30.15 850 25.1 8.3 46.9 77 4.4 40 8.65 0.341
03:24 1021 30.15 850 25.1 8.4 47 77 4.5 40.1 8.65 0.341
03:25 1021 30.15 850 25.1 8.3 47 77 4.5 40.1 8.65 0.341
03:26 1021 30.15 850 25.1 8.3 47 77 4.5 40.1 8.64 0.34
03:27 1021 30.15 850 25.1 8.4 47.1 77 4.5 40.1 8.7 0.343
03:28 1021 30.15 850 25.1 8.4 47 76 4.5 40 8.71 0.343
03:29 1021 30.15 850 25.1 8.4 47.1 76 4.4 40 8.74 0.344
03:30 1021 30.15 850 25.1 8.4 47.2 76 4.5 40.1 8.76 0.345
03:31 1021 30.15 850 25.1 8.4 47.1 76 4.5 40.1 8.79 0.346
03:32 1021 30.15 850 25.1 8.4 47.1 77 4.5 40.1 8.74 0.344
03:33 1021 30.15 850 25.1 8.3 47 77 4.5 40.1 8.73 0.344
03:34 1021 30.15 850 25.1 8.3 46.9 77 4.5 40.1 8.62 0.339
03:35 1021 30.15 850 25.1 8.1 46.5 78 4.6 40.2 8.31 0.327
03:36 1021 30.15 850 25.1 7.8 46 80 4.6 40.2 8.03 0.316
03:37 1021 30.15 850 25.1 7.5 45.5 81 4.5 40 7.83 0.308
03:38 1021 30.15 850 25.1 7.4 45.2 82 4.4 40 7.7 0.303
03:39 1021 30.15 850 25.1 7.2 45 82 4.4 40 7.59 0.299
03:40 1021 30.15 850 25.1 7.1 44.8 83 4.4 40 7.48 0.294
03:41 1021 30.15 850 25.1 7.1 44.7 84 4.6 40.2 7.46 0.294
03:42 1021 30.15 850 25.1 7.2 44.9 81 4.2 39.6 7.64 0.301
03:43 1021 30.15 850 25.1 7.5 45.5 78 3.9 39 7.94 0.313
03:44 1021 30.15 850 25.1 8 46.4 76 4 39.3 8.23 0.324
03:45 1021 30.15 850 25.1 8.4 47 76 4.3 39.8 8.49 0.334
03:46 1021 30.15 850 25.1 8.4 47.1 77 4.6 40.2 8.49 0.334
03:47 1021 30.15 851 25.13 8.2 46.8 78 4.7 40.4 8.4 0.331
03:48 1021 30.15 851 25.13 8.1 46.6 79 4.7 40.4 8.31 0.327
03:49 1021 30.15 851 25.13 7.9 46.3 80 4.7 40.4 8.18 0.322
03:50 1021 30.15 850 25.1 7.8 46.1 80 4.7 40.4 8.09 0.319
03:51 1021 30.15 850 25.1 7.7 45.8 81 4.6 40.3 8.02 0.316
03:52 1021 30.15 850 25.1 7.6 45.8 81 4.6 40.3 7.96 0.313
03:53 1021 30.15 850 25.1 7.6 45.6 81 4.6 40.2 7.91 0.311
03:54 1021 30.15 851 25.13 7.6 45.6 81 4.5 40.2 7.91 0.311
03:55 1021 30.15 850 25.1 7.6 45.7 81 4.6 40.2 7.89 0.311
03:56 1021 30.15 851 25.13 7.6 45.6 81 4.5 40.2 7.87 0.31
03:57 1021 30.15 850 25.1 7.5 45.6 81 4.5 40.1 7.83 0.308
03:58 1021 30.15 850 25.1 7.5 45.5 81 4.5 40.2 7.83 0.308
03:59 1021 30.15 850 25.1 7.5 45.5 81 4.5 40.2 7.86 0.309
04:00 1021 30.15 850 25.1 7.5 45.5 82 4.6 40.2 7.8 0.307
04:01 1021 30.15 850 25.1 7.4 45.3 82 4.6 40.2 7.79 0.307
04:02 1021 30.15 850 25.1 7.4 45.2 82 4.5 40.2 7.7 0.303
04:03 1021 30.15 850 25.1 7.4 45.3 82 4.6 40.2 7.69 0.303
04:04 1021 30.15 850 25.1 7.4 45.3 82 4.5 40.2 7.74 0.305
04:05 1021 30.15 850 25.1 7.5 45.4 82 4.6 40.2 7.77 0.306
04:06 1021 30.15 850 25.1 7.4 45.4 82 4.6 40.2 7.76 0.306
04:07 1021 30.15 850 25.1 7.4 45.3 82 4.6 40.2 7.72 0.304
04:08 1021 30.15 850 25.1 7.4 45.3 82 4.5 40.2 7.7 0.303
04:09 1021 30.15 850 25.1 7.5 45.4 81 4.4 40 7.76 0.306
04:10 1021 30.15 850 25.1 7.5 45.6 80 4.4 39.9 7.75 0.305
04:11 1021 30.15 850 25.1 7.6 45.6 80 4.4 39.8 7.86 0.309
04:12 1021 30.15 851 25.13 7.5 45.5 81 4.5 40 7.72 0.304
04:13 1021 30.15 851 25.13 7.3 45.1 83 4.6 40.3 7.43 0.293
04:14 1021 30.15 851 25.13 7 44.6 85 4.7 40.4 7.23 0.285
04:15 1021 30.15 851 25.13 6.9 44.3 85 4.5 40 7.27 0.286
04:16 1021 30.15 851 25.13 6.9 44.4 85 4.5 40.2 7.26 0.286
04:17 1021 30.15 851 25.13 6.9 44.4 85 4.6 40.2 7.17 0.282
04:18 1021 30.15 851 25.13 6.8 44.3 85 4.4 40 7.14 0.281
04:19 1021 30.15 851 25.13 6.8 44.2 84 4.4 39.9 7.13 0.281
04:20 1021 30.15 851 25.13 6.8 44.3 84 4.4 39.9 7.16 0.282
04:21 1021 30.15 851 25.13 7 44.5 83 4.3 39.8 7.25 0.285
04:22 1021 30.15 851 25.13 7.1 44.8 82 4.3 39.7 7.36 0.29
04:23 1021 30.15 851 25.13 7.2 45 82 4.4 39.8 7.44 0.293
04:24 1021 30.15 851 25.13 7.4 45.2 81 4.4 39.9 7.56 0.298
04:25 1021 30.15 851 25.13 7.5 45.5 81 4.5 40.1 7.71 0.304
04:26 1021 30.15 851 25.13 7.5 45.5 81 4.5 40.1 7.76 0.306
04:27 1021 30.15 851 25.13 7.5 45.5 81 4.5 40.1 7.68 0.302
04:28 1021 30.15 851 25.13 7.5 45.4 81 4.4 40 7.72 0.304
04:29 1021 30.15 851 25.13 7.5 45.4 81 4.4 39.9 7.74 0.305
04:30 1021 30.15 851 25.13 7.5 45.4 81 4.4 39.9 7.74 0.305
04:31 1021 30.15 851 25.13 7.4 45.4 81 4.4 39.9 7.66 0.302
04:32 1021 30.15 851 25.13 7.4 45.3 81 4.4 39.9 7.66 0.302
04:33 1021 30.15 851 25.13 7.3 45.1 81 4.3 39.8 7.63 0.3
04:34 1021 30.15 851 25.13 7.2 45 82 4.3 39.7 7.54 0.297
04:35 1021 30.15 851 25.13 7.1 44.8 82 4.3 39.7 7.46 0.294
04:36 1022 30.18 851 25.13 7.1 44.7 82 4.3 39.7 7.38 0.291
04:37 1022 30.18 851 25.13 7 44.7 83 4.3 39.7 7.34 0.289
04:38 1022 30.18 851 25.13 7 44.7 83 4.3 39.7 7.4 0.291
04:39 1022 30.18 851 25.13 7.1 44.7 82 4.3 39.7 7.42 0.292
04:40 1022 30.18 851 25.13 7.1 44.8 82 4.2 39.6 7.41 0.292
04:41 1022 30.18 851 25.13 7.1 44.8 82 4.3 39.7 7.38 0.291
04:42 1022 30.18 851 25.13 7.1 44.8 82 4.3 39.7 7.35 0.289
04:43 1022 30.18 851 25.13 7 44.6 82 4.2 39.6 7.32 0.288
04:44 1022 30.18 851 25.13 7 44.6 83 4.2 39.6 7.26 0.286
04:45 1022 30.18 851 25.13 6.9 44.5 83 4.2 39.6 7.24 0.285
04:46 1022 30.18 851 25.13 6.8 44.3 83 4.2 39.5 7.18 0.283
04:47 1022 30.18 851 25.13 6.8 44.3 83 4.2 39.5 7.16 0.282
04:48 1022 30.18 851 25.13 6.9 44.3 83 4.1 39.5 7.18 0.283
04:49 1022 30.18 851 25.13 6.8 44.3 83 4.2 39.5 7.13 0.281
04:50 1022 30.18 851 25.13 6.7 44.1 83 4.1 39.4 7.11 0.28
04:51 1022 30.18 851 25.13 6.7 44.1 84 4.2 39.5 7.06 0.278
04:52 1022 30.18 851 25.13 6.7 44.1 84 4.2 39.5 7.06 0.278
04:53 1022 30.18 851 25.13 6.7 44.1 84 4.1 39.4 6.994 0.275
04:54 1022 30.18 851 25.13 6.8 44.2 83 4.1 39.4 7.08 0.279
04:55 1022 30.18 851 25.13 6.8 44.3 83 4.1 39.4 7.12 0.28
04:56 1022 30.18 851 25.13 6.9 44.4 83 4.1 39.5 7.12 0.28
04:57 1022 30.18 851 25.13 6.8 44.3 83 4.2 39.5 7.16 0.282
04:58 1022 30.18 851 25.13 6.8 44.3 83 4.2 39.5 7.12 0.28
04:59 1022 30.18 851 25.13 6.8 44.2 83 4.2 39.5 7.09 0.279
05:00 1022 30.18 851 25.13 6.8 44.3 83 4.2 39.5 7.13 0.281
05:01 1022 30.18 851 25.13 6.8 44.2 83 4.2 39.5 7.08 0.279
05:02 1022 30.18 851 25.13 6.8 44.2 83 4.1 39.5 7.05 0.278
05:03 1022 30.18 851 25.13 6.8 44.2 83 4.1 39.4 7.02 0.276
05:04 1022 30.18 851 25.13 6.7 44.1 83 4.1 39.4 7.02 0.276
05:05 1022 30.18 851 25.13 6.8 44.2 83 4.1 39.4 7.04 0.277
05:06 1022 30.18 851 25.13 6.8 44.3 82 4 39.3 7.07 0.278
05:07 1022 30.18 851 25.13 7 44.5 82 4 39.3 7.17 0.282
05:08 1022 30.18 851 25.13 7.1 44.7 81 4.1 39.4 7.2 0.283
05:09 1022 30.18 851 25.13 7.1 44.8 82 4.2 39.5 7.3 0.287
05:10 1022 30.18 851 25.13 7.1 44.8 82 4.2 39.5 7.27 0.286
05:11 1022 30.18 851 25.13 7.1 44.7 82 4.2 39.5 7.3 0.287
05:12 1022 30.18 851 25.13 7.1 44.7 82 4.2 39.5 7.28 0.287
05:13 1022 30.18 851 25.13 7.1 44.7 82 4.2 39.6 7.31 0.288
05:14 1022 30.18 851 25.13 7 44.6 82 4.2 39.6 7.26 0.286
05:15 1022 30.18 851 25.13 6.9 44.5 83 4.2 39.6 7.22 0.284
05:16 1022 30.18 851 25.13 6.8 44.3 84 4.2 39.6 7.15 0.281
05:17 1022 30.18 851 25.13 6.7 44.1 84 4.3 39.7 7.04 0.277
05:18 1022 30.18 851 25.13 6.6 44 85 4.2 39.6 6.996 0.275
05:19 1022 30.18 851 25.13 6.6 43.8 85 4.3 39.7 6.939 0.273
05:20 1022 30.18 851 25.13 6.5 43.7 85 4.2 39.6 6.939 0.273
05:21 1022 30.18 851 25.13 6.5 43.6 86 4.2 39.6 6.837 0.269
05:22 1022 30.18 851 25.13 6.4 43.5 86 4.3 39.7 6.798 0.268
05:23 1022 30.18 851 25.13 6.2 43.2 87 4.2 39.6 6.639 0.261
05:24 1022 30.18 851 25.13 6.1 43 88 4.3 39.7 6.549 0.258
05:25 1022 30.18 851 25.13 6 42.8 89 4.3 39.7 6.487 0.255
05:26 1022 30.18 851 25.13 6 42.7 89 4.3 39.8 6.424 0.253
05:27 1022 30.18 851 25.13 5.9 42.7 89 4.3 39.7 6.357 0.25
05:28 1022 30.18 851 25.13 5.9 42.6 89 4.2 39.6 6.334 0.249
05:29 1022 30.18 851 25.13 6 42.8 89 4.3 39.7 6.362 0.25
05:30 1022 30.18 851 25.13 6.1 42.9 88 4.2 39.6 6.374 0.251
05:31 1022 30.18 851 25.13 6.2 43.1 87 4.2 39.6 6.47 0.255
05:32 1022 30.18 851 25.13 6.2 43.2 87 4.2 39.6 6.594 0.26
05:33 1022 30.18 851 25.13 6.3 43.4 86 4.2 39.6 6.628 0.261
05:34 1022 30.18 851 25.13 6.4 43.4 86 4.1 39.5 6.702 0.264
05:35 1022 30.18 851 25.13 6.4 43.5 85 4.2 39.5 6.758 0.266
05:36 1022 30.18 851 25.13 6.5 43.7 85 4.2 39.5 6.82 0.269
05:37 1022 30.18 851 25.13 6.6 43.8 85 4.1 39.5 6.86 0.27
05:38 1022 30.18 851 25.13 6.6 43.9 84 4.2 39.6 6.951 0.274
05:39 1022 30.18 851 25.13 6.6 43.9 84 4.2 39.5 6.979 0.275
05:40 1022 30.18 851 25.13 6.6 43.9 85 4.2 39.6 6.985 0.275
05:41 1022 30.18 851 25.13 6.6 43.9 85 4.2 39.6 6.934 0.273
05:42 1022 30.18 851 25.13 6.6 44 85 4.3 39.7 6.956 0.274
05:43 1022 30.18 851 25.13 6.6 43.9 85 4.3 39.7 6.968 0.274
05:44 1022 30.18 851 25.13 6.6 43.8 85 4.3 39.7 6.888 0.271
05:45 1022 30.18 851 25.13 6.5 43.7 85 4.2 39.6 6.843 0.269
05:46 1022 30.18 851 25.13 6.4 43.6 86 4.2 39.6 6.77 0.267
05:47 1022 30.18 851 25.13 6.4 43.5 86 4.3 39.7 6.724 0.265
05:48 1022 30.18 851 25.13 6.4 43.6 86 4.2 39.6 6.792 0.267
05:49 1022 30.18 851 25.13 6.5 43.7 85 4.2 39.6 6.804 0.268
05:50 1022 30.18 851 25.13 6.6 43.9 85 4.2 39.6 6.883 0.271
05:51 1022 30.18 851 25.13 6.7 44.1 84 4.2 39.6 6.996 0.275
05:52 1022 30.18 851 25.13 6.8 44.3 83 4.2 39.6 7.08 0.279
05:53 1022 30.18 851 25.13 6.8 44.2 84 4.2 39.6 7.08 0.279
05:54 1022 30.18 851 25.13 6.8 44.2 84 4.3 39.7 7.09 0.279
05:55 1022 30.18 851 25.13 6.7 44 84 4.2 39.6 7.09 0.279
05:56 1022 30.18 851 25.13 6.6 43.9 85 4.3 39.7 7.04 0.277
05:57 1022 30.18 851 25.13 6.6 43.8 85 4.3 39.7 7 0.276
05:58 1022 30.18 851 25.13 6.5 43.7 86 4.3 39.7 6.962 0.274
05:59 1022 30.18 851 25.13 6.4 43.6 86 4.3 39.7 6.871 0.271
06:00 1022 30.18 851 25.13 6.4 43.4 87 4.3 39.8 6.86 0.27
06:01 1022 30.18 851 25.13 6.4 43.5 87 4.4 39.9 6.849 0.27
06:02 1022 30.18 851 25.13 6.3 43.4 87 4.4 39.9 6.815 0.268
06:03 1022 30.18 851 25.13 6.3 43.4 88 4.4 40 6.877 0.271
06:04 1022 30.18 851 25.13 6.3 43.4 88 4.4 40 6.922 0.273
06:05 1022 30.18 851 25.13 6.4 43.5 88 4.5 40.1 6.854 0.27
06:06 1022 30.18 851 25.13 6.4 43.4 88 4.5 40.1 6.877 0.271
06:07 1022 30.18 851 25.13 6.4 43.4 88 4.5 40.2 6.917 0.272
06:08 1022 30.18 851 25.13 6.4 43.5 88 4.6 40.3 6.934 0.273
06:09 1022 30.18 851 25.13 6.5 43.6 88 4.6 40.3 6.985 0.275
06:10 1022 30.18 851 25.13 6.5 43.7 88 4.6 40.3 7.04 0.277
06:11 1022 30.18 851 25.13 6.6 43.8 88 4.7 40.4 7.08 0.279
06:12 1022 30.18 851 25.13 6.6 43.9 87 4.6 40.3 7.2 0.283
06:13 1022 30.18 851 25.13 6.7 44.1 86 4.6 40.3 7.26 0.286
06:14 1022 30.18 851 25.13 6.8 44.2 86 4.6 40.3 7.36 0.29
06:15 1022 30.18 851 25.13 6.9 44.4 86 4.6 40.3 7.44 0.293
06:16 1022 30.18 851 25.13 6.9 44.5 85 4.6 40.2 7.5 0.295
06:17 1022 30.18 851 25.13 7 44.6 85 4.6 40.3 7.55 0.297
06:18 1022 30.18 851 25.13 7 44.7 85 4.7 40.4 7.6 0.299
06:19 1022 30.18 851 25.13 7.1 44.8 85 4.8 40.6 7.61 0.3
06:20 1022 30.18 851 25.13 7.1 44.8 85 4.8 40.7 7.62 0.3
06:21 1022 30.18 851 25.13 7.2 45 85 4.8 40.7 7.69 0.303
06:22 1022 30.18 851 25.13 7.4 45.2 84 4.9 40.7 7.86 0.309
06:23 1022 30.18 851 25.13 7.5 45.5 84 4.9 40.8 7.97 0.314
06:24 1022 30.18 851 25.13 7.7 45.8 83 5 40.9 8.13 0.32
06:25 1022 30.18 851 25.13 7.9 46.2 83 5.2 41.3 8.27 0.326
06:26 1022 30.18 851 25.13 8.1 46.5 82 5.2 41.4 8.54 0.336
06:27 1022 30.18 851 25.13 8.3 46.9 81 5.2 41.3 8.71 0.343
06:28 1022 30.18 851 25.13 8.5 47.3 79 5 41.1 8.87 0.349
06:29 1022 30.18 851 25.13 8.6 47.5 79 5.2 41.3 8.98 0.354
06:30 1022 30.18 851 25.13 8.6 47.5 79 5.2 41.4 9 0.354
06:31 1022 30.18 851 25.13 8.6 47.5 80 5.3 41.5 9.04 0.356
06:32 1022 30.18 851 25.13 8.6 47.5 80 5.3 41.6 9 0.354
06:33 1022 30.18 851 25.13 8.6 47.4 80 5.3 41.6 9.02 0.355
06:34 1022 30.18 851 25.13 8.6 47.4 80 5.3 41.6 8.95 0.352
06:35 1022 30.18 851 25.13 8.6 47.5 80 5.3 41.5 8.93 0.352
06:36 1022 30.18 851 25.13 8.7 47.6 79 5.3 41.5 8.94 0.352
06:37 1022 30.18 851 25.13 8.8 47.8 79 5.3 41.6 8.99 0.354
06:38 1022 30.18 851 25.13 8.9 48 75 4.6 40.4 9.11 0.359
06:39 1022 30.18 851 25.13 9.1 48.4 74 4.8 40.6 9.28 0.365
06:40 1022 30.18 851 25.13 9.3 48.7 73 4.8 40.6 9.44 0.372
06:41 1022 30.18 851 25.13 9.5 49.1 73 5 41 9.6 0.378
06:42 1022 30.18 851 25.13 9.7 49.4 73 5.1 41.2 9.69 0.381
06:43 1022 30.18 851 25.13 9.9 49.7 74 5.5 41.8 9.73 0.383
06:44 1022 30.18 851 25.13 10 50 75 5.8 42.4 9.81 0.386
06:45 1022 30.18 851 25.13 10.1 50.1 75 5.8 42.5 9.84 0.387
06:46 1022 30.18 851 25.13 10.2 50.3 74 5.8 42.4 9.93 0.391
06:47 1022 30.18 851 25.13 10.1 50.2 74 5.8 42.5 10.03 0.395
06:48 1022 30.18 851 25.13 10.2 50.3 73 5.6 42.1 10.04 0.395
06:49 1022 30.18 851 25.13 10.2 50.4 74 5.7 42.3 10.15 0.4
06:50 1022 30.18 851 25.13 10.3 50.5 74 6 42.7 10.22 0.402
06:51 1022 30.18 851 25.13 10.3 50.5 74 5.8 42.5 10.3 0.406
06:52 1022 30.18 851 25.13 10.3 50.5 73 5.7 42.2 10.26 0.404
06:53 1022 30.18 851 25.13 10.2 50.3 75 6 42.8 10.21 0.402
06:54 1022 30.18 851 25.13 10.1 50.2 75 5.9 42.6 10.2 0.402
06:55 1022 30.18 851 25.13 10.1 50.2 74 5.8 42.4 10.21 0.402
06:56 1022 30.18 851 25.13 10.1 50.1 74 5.6 42.1 10.23 0.403
06:57 1022 30.18 851 25.13 10.2 50.3 74 5.7 42.3 10.27 0.404
06:58 1022 30.18 851 25.13 10.2 50.4 74 5.7 42.3 10.33 0.407
06:59 1022 30.18 851 25.13 10.3 50.5 75 6.1 43 10.41 0.41
07:00 1022 30.18 851 25.13 10.4 50.7 75 6.1 43.1 10.52 0.414
07:01 1022 30.18 851 25.13 10.6 51 73 6 42.7 10.64 0.419
07:02 1022 30.18 851 25.13 10.7 51.3 73 6.1 43.1 10.75 0.423
07:03 1022 30.18 851 25.13 10.9 51.7 72 6.1 43.1 10.85 0.427
07:04 1022 30.18 851 25.13 11.1 52 72 6.2 43.2 11.02 0.434
07:05 1022 30.18 851 25.13 11.3 52.3 73 6.7 44.1 11.28 0.444
07:06 1022 30.18 851 25.13 11.4 52.6 72 6.6 43.9 11.47 0.452
07:07 1022 30.18 851 25.13 11.5 52.7 70 6.3 43.4 11.64 0.458
07:08 1022 30.18 851 25.13 11.5 52.8 71 6.6 43.8 11.76 0.463
07:09 1022 30.18 851 25.13 11.5 52.8 70 6.4 43.5 11.85 0.467
07:10 1022 30.18 851 25.13 11.6 52.8 70 6.3 43.4 11.93 0.47
07:11 1022 30.18 851 25.13 11.6 52.8 73 7 44.6 12.02 0.473
07:12 1022 30.18 851 25.13 11.6 53 72 6.7 44.1 12.13 0.478
07:13 1022 30.18 851 25.13 11.7 53.1 73 7 44.6 12.28 0.483
07:14 1022 30.18 851 25.13 11.8 53.3 71 6.7 44.1 12.39 0.488
07:15 1022 30.18 851 25.13 11.9 53.4 70 6.7 44.1 12.42 0.489
07:16 1022 30.18 851 25.13 11.9 53.5 70 6.7 44.1 12.44 0.49
07:17 1022 30.18 851 25.13 12 53.6 68 6.3 43.4 12.47 0.491
07:18 1022 30.18 851 25.13 12.1 53.8 70 6.9 44.4 12.55 0.494
07:19 1022 30.18 851 25.13 12.2 54 72 7.3 45.2 12.73 0.501
07:20 1022 30.18 851 25.13 12.3 54.1 69 6.8 44.2 12.85 0.506
07:21 1022 30.18 851 25.13 12.4 54.2 72 7.5 45.5 12.88 0.507
07:22 1022 30.18 851 25.13 12.5 54.4 69 7 44.6 13 0.512
07:23 1022 30.18 851 25.13 12.6 54.6 68 6.9 44.5 13.06 0.514
07:24 1022 30.18 851 25.13 12.7 54.8 69 7.2 45 13.19 0.519
07:25 1022 30.18 851 25.13 12.8 55.1 69 7.3 45.2 13.39 0.527
07:26 1022 30.18 851 25.13 13 55.4 67 7.1 44.8 13.64 0.537
07:27 1022 30.18 851 25.13 13.1 55.6 69 7.6 45.6 13.83 0.544
07:28 1022 30.18 851 25.13 13.4 56 69 7.9 46.2 14.09 0.555
07:29 1022 30.18 851 25.13 13.6 56.4 68 7.8 46.1 14.4 0.567
07:30 1022 30.18 851 25.13 13.9 57 68 8.1 46.6 14.66 0.577
07:31 1022 30.18 851 25.13 14.2 57.6 63 7.3 45.2 14.71 0.579
07:32 1022 30.18 851 25.13 14.3 57.7 63 7.4 45.3 14.47 0.57
07:33 1022 30.18 851 25.13 14.3 57.8 64 7.6 45.6 14.39 0.567
07:34 1022 30.18 851 25.13 14.3 57.8 64 7.6 45.6 14.27 0.562
07:35 1022 30.18 851 25.13 14.3 57.8 65 8 46.3 14.24 0.561
07:36 1022 30.18 851 25.13 14.4 58 67 8.5 47.3 14.27 0.562
07:37 1022 30.18 851 25.13 14.6 58.2 62 7.4 45.3 14.32 0.564
07:38 1022 30.18 851 25.13 14.7 58.5 62 7.6 45.7 14.36 0.565
07:39 1022 30.18 851 25.13 14.8 58.6 63 7.8 46 14.44 0.569
07:40 1022 30.18 851 25.13 14.9 58.9 61 7.6 45.6 14.51 0.571
07:41 1022 30.18 851 25.13 15.1 59.2 61 7.7 45.8 14.59 0.574
07:42 1022 30.18 851 25.13 15.2 59.3 62 8 46.5 14.63 0.576
07:43 1022 30.18 851 25.13 15.2 59.4 63 8.2 46.7 14.75 0.581
07:44 1022 30.18 851 25.13 15.4 59.7 62 8.2 46.7 14.85 0.585
07:45 1022 30.18 851 25.13 15.5 59.8 61 8.1 46.5 14.92 0.587
07:46 1022 30.18 851 25.13 15.6 60 64 8.8 47.9 14.97 0.589
07:47 1022 30.18 851 25.13 15.7 60.2 63 8.7 47.6 15.14 0.596
07:48 1022 30.18 851 25.13 15.8 60.4 60 8 46.4 15.16 0.597
07:49 1022 30.18 851 25.13 15.8 60.5 58 7.8 46 15.28 0.602
07:50 1022 30.18 851 25.13 16 60.8 61 8.6 47.5 15.53 0.611
07:51 1022 30.18 851 25.13 16.2 61.1 61 8.9 47.9 15.76 0.62
07:52 1022 30.18 851 25.13 16.4 61.6 60 8.8 47.8 16 0.63
07:53 1022 30.18 851 25.13 16.7 62 57 8.3 46.9 16.12 0.635
07:54 1022 30.18 851 25.13 16.9 62.4 59 9 48.1 16.2 0.638
07:55 1022 30.18 851 25.13 17 62.6 57 8.6 47.6 16.21 0.638
07:56 1022 30.18 851 25.13 17.1 62.7 55 8.1 46.6 16.22 0.639
07:57 1022 30.18 851 25.13 17.1 62.7 56 8.5 47.2 16.25 0.64
07:58 1022 30.18 851 25.13 17.1 62.7 54 7.7 45.9 16.36 0.644
07:59 1022 30.18 851 25.13 16.9 62.4 57 8.4 47.1 16.27 0.641
08:00 1022 30.18 851 25.13 16.7 62.1 56 8 46.5 16.11 0.634
08:01 1022 30.18 851 25.13 16.5 61.7 59 8.6 47.5 16.13 0.635
08:02 1022 30.18 851 25.13 16.5 61.6 58 8.3 47 16.23 0.639
08:03 1022 30.18 851 25.13 16.5 61.7 60 8.7 47.6 16.36 0.644
08:04 1022 30.18 851 25.13 16.6 61.9 60 8.8 47.9 16.53 0.651
08:05 1022 30.18 851 25.13 16.7 62 59 8.8 47.8 16.78 0.661
08:06 1022 30.18 851 25.13 16.7 62 61 9.2 48.5 16.84 0.663
08:07 1022 30.18 851 25.13 16.8 62.2 60 9 48.2 16.97 0.668
08:08 1022 30.18 851 25.13 16.9 62.4 61 9.3 48.8 17.13 0.674
08:09 1022 30.18 851 25.13 16.9 62.4 58 8.7 47.7 17.14 0.675
08:10 1022 30.18 851 25.13 16.9 62.3 56 8.1 46.6 17.07 0.672
08:11 1022 30.18 851 25.13 16.7 62.1 59 8.9 47.9 17.01 0.67
08:12 1022 30.18 851 25.13 16.7 62.1 58 8.6 47.5 17.08 0.672
08:13 1022 30.18 851 25.13 16.8 62.2 53 7.2 45 16.97 0.668
08:14 1022 30.18 851 25.13 16.6 61.9 56 7.9 46.3 16.78 0.661
08:15 1022 30.18 851 25.13 16.4 61.5 55 7.4 45.3 16.67 0.656
08:16 1022 30.18 851 25.13 16.3 61.4 61 9 48.2 16.73 0.659
08:17 1022 30.18 851 25.13 16.4 61.4 57 7.9 46.3 16.73 0.659
08:18 1022 30.18 851 25.13 16.3 61.3 60 8.7 47.6 16.54 0.651
08:19 1022 30.18 851 25.13 16.3 61.3 57 7.9 46.2 16.52 0.65
08:20 1022 30.18 851 25.13 16.2 61.2 63 9.3 48.7 16.52 0.65
08:21 1022 30.18 851 25.13 16.2 61.2 60 8.5 47.2 16.61 0.654
08:22 1022 30.18 851 25.13 16.3 61.3 59 8.3 46.9 16.6 0.654
08:23 1022 30.18 851 25.13 16.3 61.4 59 8.4 47.2 16.61 0.654
08:24 1022 30.18 851 25.13 16.4 61.5 60 8.6 47.6 16.57 0.652
08:25 1022 30.18 851 25.13 16.5 61.6 60 8.7 47.6 16.59 0.653
08:26 1022 30.18 851 25.13 16.4 61.6 57 8 46.5 16.6 0.654
08:27 1022 30.18 851 25.13 16.4 61.6 55 7.6 45.6 16.59 0.653
08:28 1022 30.18 851 25.13 16.4 61.5 59 8.4 47.1 16.56 0.652
08:29 1022 30.18 851 25.13 16.4 61.5 60 8.7 47.6 16.62 0.654
08:30 1022 30.18 851 25.13 16.5 61.7 54 7.3 45.1 16.69 0.657
08:31 1022 30.18 851 25.13 16.5 61.6 56 7.8 46 16.62 0.654
08:32 1022 30.18 851 25.13 16.5 61.6 55 7.5 45.4 16.75 0.659
08:33 1022 30.18 851 25.13 16.6 61.9 58 8.3 46.9 16.86 0.664
08:34 1022 30.18 851 25.13 16.7 62 55 7.7 45.9 16.93 0.667
08:35 1022 30.18 851 25.13 16.7 62 57 8.2 46.7 16.94 0.667
08:36 1022 30.18 851 25.13 16.8 62.3 53 7.2 45 17.02 0.67
08:37 1022 30.18 851 25.13 16.9 62.4 53 7.4 45.4 17.15 0.675
08:38 1022 30.18 851 25.13 16.9 62.4 54 7.7 45.8 17.1 0.673
08:39 1022 30.18 851 25.13 16.9 62.3 54 7.5 45.6 16.97 0.668
08:40 1022 30.18 851 25.13 16.8 62.2 53 7.3 45.2 16.9 0.665
08:41 1022 30.18 851 25.13 16.7 62.1 55 7.8 46 16.85 0.663
08:42 1022 30.18 851 25.13 16.6 61.8 56 7.8 46.1 16.82 0.662
08:43 1022 30.18 851 25.13 16.6 61.8 58 8.3 47 16.92 0.666
08:44 1022 30.18 851 25.13 16.5 61.8 56 7.9 46.2 16.87 0.664
08:45 1022 30.18 851 25.13 16.5 61.7 55 7.7 45.8 16.86 0.664
08:46 1022 30.18 851 25.13 16.5 61.7 52 6.7 44.1 16.93 0.667
08:47 1022 30.18 851 25.13 16.5 61.6 52 6.6 43.8 16.86 0.664
08:48 1022 30.18 851 25.13 16.4 61.5 49 5.9 42.6 16.8 0.661
08:49 1022 30.18 851 25.13 16.3 61.3 49 5.6 42.2 16.74 0.659
08:50 1022 30.18 851 25.13 16.2 61.2 56 7.5 45.6 16.7 0.657
08:51 1022 30.18 851 25.13 16.2 61.2 54 7 44.5 16.7 0.657
08:52 1022 30.18 851 25.13 16.2 61.1 51 6.1 43 16.63 0.655
08:53 1022 30.18 851 25.13 16.2 61.1 48 5.4 41.7 16.61 0.654
08:54 1022 30.18 851 25.13 16.2 61.1 53 6.7 44 16.66 0.656
08:55 1022 30.18 851 25.13 16.3 61.3 50 5.9 42.5 16.73 0.659
08:56 1022 30.18 851 25.13 16.2 61.2 49 5.7 42.2 16.69 0.657
08:57 1022 30.18 851 25.13 16.3 61.3 53 6.8 44.2 16.77 0.66
08:58 1022 30.18 851 25.13 16.3 61.3 46 4.8 40.6 16.84 0.663
08:59 1022 30.18 851 25.13 16.3 61.3 52 6.5 43.7 16.84 0.663
09:00 1022 30.18 851 25.13 16.3 61.4 48 5.4 41.7 16.8 0.661
09:01 1022 30.18 851 25.13 16.3 61.4 50 5.9 42.7 16.8 0.661
09:02 1022 30.18 851 25.13 16.3 61.4 49 5.6 42.1 16.87 0.664
09:03 1022 30.18 851 25.13 16.3 61.3 53 6.7 44 16.82 0.662
09:04 1022 30.18 851 25.13 16.3 61.3 53 6.7 44 16.84 0.663
09:05 1022 30.18 851 25.13 16.3 61.4 47 5.2 41.3 16.85 0.663
09:06 1022 30.18 851 25.13 16.4 61.5 55 7.3 45.2 16.87 0.664
09:07 1022 30.18 851 25.13 16.5 61.7 50 6 42.8 16.93 0.667
09:08 1022 30.18 851 25.13 16.6 61.8 46 4.9 40.8 17.03 0.67
09:09 1022 30.18 851 25.13 16.6 61.9 48 5.7 42.3 17.06 0.672
09:10 1022 30.18 851 25.13 16.7 62 55 7.6 45.7 17.12 0.674
09:11 1022 30.18 851 25.13 16.7 62 49 5.9 42.7 17.12 0.674
09:12 1022 30.18 851 25.13 16.7 62 54 7.5 45.4 17.07 0.672
09:13 1022 30.18 851 25.13 16.7 62 52 7 44.6 17.13 0.674
09:14 1022 30.18 851 25.13 16.6 62 50 6.3 43.4 17.15 0.675
09:15 1022 30.18 851 25.13 16.7 62 55 7.6 45.7 17.18 0.676
09:16 1022 30.18 851 25.13 16.7 62 47 5.3 41.6 17.11 0.674
09:17 1022 30.18 851 25.13 16.5 61.7 47 5.2 41.4 16.94 0.667
09:18 1022 30.18 851 25.13 16.5 61.6 49 5.8 42.5 16.92 0.666
09:19 1022 30.18 851 25.13 16.5 61.7 53 7.1 44.8 17.01 0.67
09:20 1022 30.18 851 25.13 16.6 61.9 51 6.6 43.8 17.09 0.673
09:21 1022 30.18 851 25.13 16.6 61.8 52 6.9 44.3 17.05 0.671
09:22 1022 30.18 851 25.13 16.6 62 50 6.3 43.4 17.12 0.674
09:23 1022 30.18 851 25.13 16.7 62.1 49 6.2 43.1 17.19 0.677
09:24 1022 30.18 851 25.13 16.7 62.1 48 5.9 42.6 17.13 0.674
09:25 1022 30.18 851 25.13 16.6 62 55 7.6 45.6 17.13 0.674
09:26 1022 30.18 851 25.13 16.7 62.1 50 6.5 43.6 17.18 0.676
09:27 1022 30.18 851 25.13 16.7 62.1 47 5.5 41.9 17.24 0.679
09:28 1022 30.18 851 25.13 16.9 62.3 53 7.3 45.2 17.35 0.683
09:29 1022 30.18 851 25.13 17 62.6 53 7.5 45.5 17.39 0.685
09:30 1022 30.18 851 25.13 17 62.7 54 7.7 45.8 17.35 0.683
09:31 1022 30.18 851 25.13 17 62.6 50 6.5 43.7 17.44 0.687
09:32 1022 30.18 851 25.13 17.1 62.9 51 7 44.6 17.4 0.685
09:33 1022 30.18 851 25.13 17.2 63 48 6.1 43 17.34 0.683
09:34 1022 30.18 851 25.13 17.2 63 54 8 46.3 17.19 0.677
09:35 1022 30.18 851 25.13 17.2 62.9 52 7.4 45.3 17.27 0.68
09:36 1022 30.18 851 25.13 17.2 62.9 49 6.4 43.5 17.25 0.679
09:37 1022 30.18 851 25.13 17.2 62.9 48 6.1 43 17.31 0.681
09:38 1022 30.18 851 25.13 17.1 62.9 46 5.5 41.9 17.28 0.68
09:39 1022 30.18 851 25.13 17.2 62.9 50 6.7 44.1 17.28 0.68
09:40 1022 30.18 851 25.13 17.3 63.1 52 7.3 45.2 17.33 0.682
09:41 1022 30.18 851 25.13 17.3 63.2 47 6 42.7 17.41 0.685
09:42 1022 30.18 851 25.13 17.4 63.3 49 6.6 43.9 17.57 0.692
09:43 1022 30.18 851 25.13 17.5 63.5 45 5.5 42 17.64 0.694
09:44 1022 30.18 851 25.13 17.5 63.4 50 6.9 44.4 17.58 0.692
09:45 1022 30.18 851 25.13 17.4 63.4 54 8.1 46.6 17.61 0.693
09:46 1022 30.18 851 25.13 17.5 63.6 48 6.5 43.7 17.66 0.695
09:47 1022 30.18 851 25.13 17.6 63.6 48 6.4 43.6 17.61 0.693
09:48 1022 30.18 851 25.13 17.5 63.4 48 6.5 43.8 17.47 0.688
09:49 1022 30.18 851 25.13 17.4 63.4 53 7.8 46 17.49 0.689
09:50 1022 30.18 851 25.13 17.4 63.4 45 5.4 41.7 17.52 0.69
09:51 1022 30.18 851 25.13 17.5 63.4 48 6.5 43.8 17.54 0.691
09:52 1022 30.18 851 25.13 17.5 63.6 49 6.9 44.4 17.56 0.691
09:53 1022 30.18 851 25.13 17.5 63.5 45 5.4 41.8 17.55 0.691
09:54 1022 30.18 851 25.13 17.5 63.5 49 6.9 44.3 17.57 0.692
09:55 1022 30.18 851 25.13 17.5 63.6 52 7.5 45.6 17.64 0.694
09:56 1022 30.18 851 25.13 17.6 63.7 49 7 44.6 17.73 0.698
09:57 1022 30.18 851 25.13 17.7 63.8 52 7.9 46.2 17.83 0.702
09:58 1022 30.18 851 25.13 17.8 64 45 5.9 42.6 17.93 0.706
09:59 1022 30.18 851 25.13 17.8 64 55 8.6 47.6 18.03 0.71
10:00 1022 30.18 851 25.13 17.7 63.9 48 6.7 44.1 18.03 0.71
10:01 1022 30.18 851 25.13 17.6 63.7 48 6.6 43.8 17.89 0.704
10:02 1022 30.18 851 25.13 17.5 63.4 47 6.2 43.1 17.8 0.701
10:03 1022 30.18 851 25.13 17.4 63.2 51 7.4 45.2 17.69 0.696
10:04 1022 30.18 851 25.13 17.3 63.1 53 7.9 46.1 17.61 0.693
10:05 1022 30.18 851 25.13 17.3 63.1 46 5.7 42.2 17.64 0.694
10:06 1022 30.18 851 25.13 17.2 62.9 40 3.6 38.5 17.58 0.692
10:07 1022 30.18 851 25.13 17.1 62.8 42 4.4 39.8 17.58 0.692
10:08 1022 30.18 851 25.13 17.3 63.1 51 7.2 44.9 17.68 0.696
10:09 1022 30.18 851 25.13 17.4 63.2 52 7.4 45.3 17.83 0.702
10:10 1022 30.18 851 25.13 17.5 63.5 46 5.8 42.5 17.97 0.707
10:11 1022 30.18 851 25.13 17.5 63.6 47 6.1 43 17.95 0.707
10:12 1022 30.18 851 25.13 17.5 63.5 45 5.7 42.3 17.93 0.706
10:13 1022 30.18 851 25.13 17.4 63.4 45 5.5 42 17.92 0.706
10:14 1022 30.18 851 25.13 17.4 63.4 51 7.2 44.9 17.92 0.706
10:15 1022 30.18 851 25.13 17.4 63.3 54 8 46.3 17.83 0.702
10:16 1022 30.18 851 25.13 17.5 63.4 54 8.2 46.7 17.95 0.707
10:17 1022 30.18 851 25.13 17.6 63.7 54 8.3 46.9 18.06 0.711
10:18 1022 30.18 851 25.13 17.7 63.8 48 6.6 43.8 18.13 0.714
10:19 1022 30.18 851 25.13 17.7 63.9 44 5.4 41.7 18.16 0.715
10:20 1022 30.18 851 25.13 17.7 63.8 49 6.9 44.5 18.07 0.711
10:21 1022 30.18 851 25.13 17.7 63.8 51 7.5 45.5 18.11 0.713
10:22 1022 30.18 851 25.13 17.7 63.9 49 6.9 44.3 18.17 0.715
10:23 1022 30.18 851 25.13 17.7 63.9 50 7.4 45.3 18.12 0.713
10:24 1022 30.18 851 25.13 17.8 64.1 45 6 42.8 18.12 0.713
10:25 1022 30.18 851 25.13 17.9 64.3 44 5.8 42.4 18.08 0.712
10:26 1022 30.18 851 25.13 17.9 64.3 47 6.5 43.6 18.09 0.712
10:27 1022 30.18 851 25.13 17.9 64.1 53 8.3 47 18.16 0.715
10:28 1022 30.18 851 25.13 17.9 64.1 46 6.2 43.1 18.23 0.718
10:29 1022 30.18 851 25.13 17.8 64.1 54 8.4 47.1 18.15 0.715
10:30 1022 30.18 851 25.13 17.9 64.1 54 8.4 47.2 18.14 0.714
10:31 1022 30.18 851 25.13 17.8 64.1 53 8.2 46.7 18.17 0.715
10:32 1022 30.18 851 25.13 17.8 64.1 46 6.2 43.1 18.13 0.714
10:33 1022 30.18 851 25.13 17.8 64.1 57 9.3 48.7 18.18 0.716
10:34 1022 30.18 851 25.13 18 64.3 44 5.7 42.3 18.26 0.719
10:35 1022 30.18 851 25.13 17.9 64.2 51 7.7 45.9 18.17 0.715
10:36 1022 30.18 851 25.13 17.9 64.3 50 7.4 45.3 18.24 0.718
10:37 1022 30.18 851 25.13 18 64.4 55 9 48.2 18.3 0.72
10:38 1022 30.18 851 25.13 18.1 64.6 50 7.6 45.8 18.38 0.724
10:39 1022 30.18 851 25.13 18.1 64.7 51 8.1 46.5 18.35 0.722
10:40 1022 30.18 851 25.13 18.1 64.6 44 5.7 42.2 18.35 0.722
10:41 1022 30.18 851 25.13 18.1 64.6 51 7.8 46.1 18.29 0.72
10:42 1022 30.18 851 25.13 18.1 64.5 51 7.8 46 18.31 0.721
10:43 1022 30.18 851 25.13 18 64.4 49 7.4 45.3 18.31 0.721
10:44 1022 30.18 851 25.13 17.9 64.3 48 6.9 44.3 18.3 0.72
10:45 1022 30.18 851 25.13 17.9 64.2 54 8.7 47.7 18.29 0.72
10:46 1022 30.18 851 25.13 18 64.3 53 8.2 46.8 18.3 0.72
10:47 1022 30.18 851 25.13 18 64.5 50 7.4 45.4 18.34 0.722
10:48 1022 30.18 851 25.13 18.1 64.6 51 7.8 46.1 18.43 0.726
10:49 1022 30.18 851 25.13 18.3 64.9 54 8.9 48 18.56 0.731
10:50 1022 30.18 851 25.13 18.3 65 43 5.5 41.9 18.58 0.731
10:51 1022 30.18 851 25.13 18.3 64.9 43 5.5 41.9 18.53 0.73
10:52 1022 30.18 851 25.13 18.2 64.8 41 4.9 40.9 18.52 0.729
10:53 1022 30.18 851 25.13 18.3 64.9 48 7.2 45 18.67 0.735
10:54 1022 30.18 851 25.13 18.4 65.2 48 7.4 45.3 18.67 0.735
10:55 1022 30.18 851 25.13 18.5 65.3 49 7.7 45.9 18.66 0.735
10:56 1022 30.18 851 25.13 18.6 65.4 47 7.3 45.1 18.78 0.739
10:57 1022 30.18 851 25.13 18.6 65.4 50 8.1 46.5 18.82 0.741
10:58 1022 30.18 851 25.13 18.6 65.4 44 6.2 43.1 18.74 0.738
10:59 1022 30.18 851 25.13 18.4 65.1 42 5.6 42 18.55 0.73
11:00 1022 30.18 851 25.13 18.4 65 46 6.7 44.1 18.51 0.729
11:01 1022 30.18 851 25.13 18.4 65.1 51 8.1 46.6 18.51 0.729
11:02 1022 30.18 851 25.13 18.5 65.2 43 5.9 42.6 18.58 0.731
11:03 1022 30.18 851 25.13 18.4 65.1 46 6.8 44.3 18.59 0.732
11:04 1022 30.18 851 25.13 18.4 65 50 7.9 46.1 18.58 0.731
11:05 1022 30.18 851 25.13 18.3 65 49 7.5 45.5 18.59 0.732
11:06 1022 30.18 851 25.13 18.4 65 40 4.8 40.6 18.59 0.732
11:07 1022 30.18 851 25.13 18.4 65 50 7.8 46 18.56 0.731
11:08 1022 30.18 851 25.13 18.4 65.2 43 5.8 42.4 18.65 0.734
11:09 1022 30.18 851 25.13 18.4 65.2 47 7.2 44.9 18.59 0.732
11:10 1022 30.18 851 25.13 18.5 65.3 49 7.6 45.7 18.67 0.735
11:11 1022 30.18 851 25.13 18.5 65.3 46 6.9 44.4 18.79 0.74
11:12 1022 30.18 851 25.13 18.5 65.4 48 7.4 45.3 18.8 0.74
11:13 1022 30.18 851 25.13 18.5 65.4 49 7.6 45.7 18.75 0.738
11:14 1022 30.18 851 25.13 18.6 65.4 46 7 44.5 18.7 0.736
11:15 1022 30.18 851 25.13 18.5 65.4 40 4.8 40.6 18.68 0.735
11:16 1022 30.18 851 25.13 18.6 65.4 55 9.5 49.1 18.74 0.738
11:17 1022 30.18 851 25.13 18.7 65.6 42 5.7 42.2 18.78 0.739
11:18 1022 30.18 851 25.13 18.7 65.6 47 7.4 45.3 18.68 0.735
11:19 1022 30.18 851 25.13 18.6 65.5 52 8.6 47.5 18.73 0.737
11:20 1022 30.18 851 25.13 18.6 65.5 51 8.3 46.9 18.88 0.743
11:21 1022 30.18 851 25.13 18.7 65.7 47 7.3 45.2 19.03 0.749
11:22 1022 30.18 851 25.13 18.8 65.8 44 6.4 43.6 19 0.748
11:23 1022 30.18 851 25.13 18.7 65.6 47 7.3 45.2 18.91 0.744
11:24 1022 30.18 851 25.13 18.6 65.5 47 7.3 45.2 18.84 0.742
11:25 1021 30.15 851 25.13 18.6 65.4 46 6.7 44.1 18.74 0.738
11:26 1021 30.15 851 25.13 18.5 65.2 54 9.2 48.6 18.67 0.735
11:27 1021 30.15 851 25.13 18.5 65.2 48 7.2 45 18.72 0.737
11:28 1021 30.15 851 25.13 18.4 65.2 51 8.2 46.7 18.72 0.737
11:29 1021 30.15 851 25.13 18.4 65.1 50 7.8 46 18.71 0.737
11:30 1021 30.15 851 25.13 18.5 65.2 46 6.8 44.2 18.74 0.738
11:31 1021 30.15 851 25.13 18.5 65.3 52 8.6 47.5 18.8 0.74
11:32 1021 30.15 851 25.13 18.5 65.4 45 6.6 43.9 18.81 0.741
11:33 1021 30.15 851 25.13 18.6 65.4 52 8.7 47.6 18.87 0.743
11:34 1021 30.15 851 25.13 18.7 65.6 49 8 46.4 19 0.748
11:35 1021 30.15 851 25.13 18.8 65.8 45 6.7 44 18.94 0.746
11:36 1021 30.15 851 25.13 18.7 65.6 43 5.9 42.7 18.88 0.743
11:37 1021 30.15 851 25.13 18.5 65.3 48 7.3 45.2 18.74 0.738
11:38 1021 30.15 851 25.13 18.5 65.2 52 8.6 47.5 18.71 0.737
11:39 1021 30.15 851 25.13 18.6 65.4 44 6.4 43.5 18.77 0.739
11:40 1021 30.15 851 25.13 18.6 65.5 49 7.8 46.1 18.79 0.74
11:41 1021 30.15 851 25.13 18.6 65.5 55 9.6 49.2 18.8 0.74
11:42 1021 30.15 851 25.13 18.6 65.5 46 6.8 44.2 18.86 0.743
11:43 1021 30.15 851 25.13 18.6 65.5 51 8.3 46.9 18.87 0.743
11:44 1021 30.15 851 25.13 18.6 65.4 48 7.4 45.4 18.86 0.743
11:45 1021 30.15 851 25.13 18.6 65.4 47 7.2 44.9 18.84 0.742
11:46 1021 30.15 851 25.13 18.6 65.5 51 8.3 46.9 18.92 0.745
11:47 1021 30.15 851 25.13 18.6 65.6 46 7 44.5 18.98 0.747
11:48 1021 30.15 851 25.13 18.7 65.7 47 7.2 45 19.03 0.749
11:49 1021 30.15 850 25.1 18.7 65.6 49 7.8 46.1 18.98 0.747
11:50 1021 30.15 851 25.13 18.7 65.7 53 8.9 48.1 19.03 0.749
11:51 1021 30.15 851 25.13 18.7 65.7 54 9.4 48.8 19.05 0.75
11:52 1021 30.15 851 25.13 18.8 65.8 51 8.4 47.1 19.03 0.749
11:53 1021 30.15 850 25.1 18.8 65.8 54 9.5 49.1 19.13 0.753
11:54 1021 30.15 851 25.13 18.8 65.9 46 7.1 44.7 19.13 0.753
11:55 1021 30.15 850 25.1 18.8 65.8 52 8.7 47.7 19.12 0.753
11:56 1021 30.15 850 25.1 18.9 65.9 45 6.7 44 19.19 0.756
11:57 1021 30.15 850 25.1 18.9 66.1 47 7.4 45.4 19.22 0.757
11:58 1021 30.15 850 25.1 19 66.2 46 7.4 45.3 19.28 0.759
11:59 1021 30.15 850 25.1 19 66.2 49 8.1 46.5 19.27 0.759
12:00 1021 30.15 850 25.1 19 66.2 47 7.6 45.8 19.28 0.759
12:01 1021 30.15 850 25.1 19 66.3 39 4.9 40.7 19.25 0.758
12:02 1021 30.15 850 25.1 19 66.2 48 7.9 46.2 19.21 0.756
12:03 1021 30.15 850 25.1 19 66.2 45 6.9 44.5 19.24 0.757
12:04 1021 30.15 850 25.1 19 66.2 46 7.1 44.9 19.24 0.757
12:05 1021 30.15 850 25.1 19 66.2 43 6.2 43.2 19.15 0.754
12:06 1021 30.15 850 25.1 19 66.2 47 7.6 45.7 19.2 0.756
12:07 1021 30.15 850 25.1 19 66.3 48 7.9 46.2 19.34 0.761
12:08 1021 30.15 850 25.1 19.1 66.4 55 9.9 49.9 19.41 0.764
12:09 1021 30.15 850 25.1 19.2 66.5 47 7.9 46.1 19.47 0.767
12:10 1021 30.15 850 25.1 19.2 66.5 50 8.7 47.6 19.44 0.765
12:11 1021 30.15 850 25.1 19.2 66.5 47 7.8 46 19.38 0.763
12:12 1021 30.15 850 25.1 19.2 66.5 49 8.5 47.2 19.41 0.764
12:13 1021 30.15 850 25.1 19.2 66.5 49 8.4 47.1 19.36 0.762
12:14 1021 30.15 850 25.1 19.1 66.4 53 9.4 49 19.37 0.763
12:15 1021 30.15 850 25.1 19.2 66.6 49 8.2 46.8 19.37 0.763
12:16 1021 30.15 850 25.1 19.3 66.7 45 7.1 44.7 19.5 0.768
12:17 1021 30.15 850 25.1 19.4 67 45 7.3 45.2 19.64 0.773
12:18 1021 30.15 850 25.1 19.4 67 43 6.7 44.1 19.62 0.772
12:19 1021 30.15 850 25.1 19.5 67 45 7.5 45.5 19.6 0.772
12:20 1021 30.15 850 25.1 19.5 67 48 8.4 47.1 19.6 0.772
12:21 1021 30.15 850 25.1 19.5 67 53 9.8 49.7 19.59 0.771
12:22 1021 30.15 850 25.1 19.5 67 51 9.1 48.3 19.73 0.777
12:23 1021 30.15 850 25.1 19.5 67.1 44 7.1 44.7 19.75 0.778
12:24 1021 30.15 850 25.1 19.4 67 44 6.9 44.3 19.76 0.778
12:25 1021 30.15 850 25.1 19.4 67 50 8.8 47.8 19.74 0.777
12:26 1021 30.15 850 25.1 19.4 67 51 9.2 48.6 19.77 0.778
12:27 1021 30.15 850 25.1 19.4 66.9 43 6.5 43.7 19.73 0.777
12:28 1021 30.15 850 25.1 19.4 66.9 45 7.2 45 19.78 0.779
12:29 1021 30.15 850 25.1 19.4 67 42 6.5 43.7 19.7 0.776
12:30 1021 30.15 850 25.1 19.4 66.9 44 7.1 44.8 19.61 0.772
12:31 1021 30.15 850 25.1 19.5 67 44 7 44.6 19.72 0.776
12:32 1021 30.15 850 25.1 19.6 67.3 45 7.6 45.7 19.82 0.78
12:33 1021 30.15 850 25.1 19.6 67.3 43 6.8 44.3 19.74 0.777
12:34 1021 30.15 850 25.1 19.5 67.2 42 6.3 43.4 19.65 0.774
12:35 1021 30.15 850 25.1 19.4 67 49 8.6 47.5 19.59 0.771
12:36 1021 30.15 850 25.1 19.4 67 49 8.5 47.4 19.65 0.774
12:37 1021 30.15 850 25.1 19.5 67.1 39 5.4 41.6 19.72 0.776
12:38 1021 30.15 850 25.1 19.5 67.2 48 8.4 47.1 19.71 0.776
12:39 1021 30.15 850 25.1 19.6 67.4 44 7.3 45.2 19.78 0.779
12:40 1021 30.15 850 25.1 19.7 67.4 49 8.8 47.8 19.8 0.78
12:41 1021 30.15 850 25.1 19.6 67.3 52 9.6 49.2 19.85 0.781
12:42 1021 30.15 850 25.1 19.6 67.2 51 9.2 48.5 19.87 0.782
12:43 1021 30.15 850 25.1 19.6 67.2 48 8.5 47.2 19.98 0.787
12:44 1021 30.15 850 25.1 19.7 67.4 54 10.1 50.2 20.03 0.789
12:45 1021 30.15 850 25.1 19.8 67.6 50 9.2 48.5 20.14 0.793
12:46 1021 30.15 850 25.1 19.8 67.7 40 6.1 43.1 20.12 0.792
12:47 1021 30.15 850 25.1 19.8 67.7 46 8.2 46.7 20.07 0.79
12:48 1021 30.15 850 25.1 19.8 67.6 50 9.2 48.5 20.03 0.789
12:49 1021 30.15 850 25.1 19.8 67.7 50 9.2 48.6 20.12 0.792
12:50 1021 30.15 850 25.1 19.9 67.8 50 9.2 48.6 20.22 0.796
12:51 1021 30.15 850 25.1 19.9 67.9 37 5 41 20.2 0.795
12:52 1021 30.15 850 25.1 19.9 67.7 46 8.1 46.6 19.92 0.784
12:53 1021 30.15 850 25.1 19.7 67.5 44 7.2 45 19.84 0.781
12:54 1021 30.15 850 25.1 19.7 67.4 50 9.1 48.3 19.74 0.777
12:55 1021 30.15 850 25.1 19.7 67.4 41 6.2 43.1 19.82 0.78
12:56 1021 30.15 850 25.1 19.7 67.5 44 7.3 45.1 19.81 0.78
12:57 1021 30.15 850 25.1 19.7 67.5 52 9.6 49.3 19.89 0.783
12:58 1021 30.15 850 25.1 19.7 67.5 47 8.4 47.1 19.94 0.785
12:59 1021 30.15 850 25.1 19.8 67.6 45 7.5 45.5 19.95 0.785
13:00 1021 30.15 850 25.1 19.7 67.5 51 9.4 48.9 19.89 0.783
13:01 1021 30.15 850 25.1 19.7 67.4 44 7.2 45 19.89 0.783
13:02 1021 30.15 850 25.1 19.6 67.4 39 5.6 42.1 19.86 0.782
13:03 1021 30.15 850 25.1 19.6 67.4 56 10.8 51.4 19.91 0.784
13:04 1021 30.15 850 25.1 19.8 67.6 46 8 46.3 20.07 0.79
13:05 1021 30.15 850 25.1 19.9 67.7 41 6.5 43.6 20.06 0.79
13:06 1021 30.15 850 25.1 19.8 67.7 46 8.2 46.7 19.99 0.787
13:07 1021 30.15 850 25.1 19.9 67.8 50 9.4 48.9 20.17 0.794
13:08 1021 30.15 850 25.1 20 67.9 49 9 48.2 20.18 0.794
13:09 1021 30.15 850 25.1 20 68 46 8.3 46.9 20.18 0.794
13:10 1021 30.15 850 25.1 20 68 44 7.5 45.5 20.25 0.797
13:11 1021 30.15 850 25.1 20.1 68.1 50 9.4 49 20.25 0.797
13:12 1021 30.15 850 25.1 20.1 68.2 49 9 48.3 20.32 0.8
13:13 1021 30.15 850 25.1 20.2 68.3 50 9.7 49.4 20.4 0.803
13:14 1021 30.15 850 25.1 20.3 68.5 47 8.6 47.4 20.39 0.803
13:15 1021 30.15 850 25.1 20.3 68.6 43 7.5 45.5 20.48 0.806
13:16 1021 30.15 850 25.1 20.4 68.7 45 8.2 46.7 20.59 0.811
13:17 1021 30.15 850 25.1 20.4 68.6 49 9.5 49.1 20.6 0.811
13:18 1021 30.15 850 25.1 20.4 68.6 42 7.3 45.1 20.61 0.811
13:19 1021 30.15 850 25.1 20.4 68.7 53 10.7 51.3 20.61 0.811
13:20 1021 30.15 850 25.1 20.4 68.7 47 8.8 47.8 20.6 0.811
13:21 1021 30.15 850 25.1 20.2 68.4 43 7.3 45.1 20.56 0.809
13:22 1021 30.15 850 25.1 20.2 68.4 39 6.1 42.9 20.57 0.81
13:23 1021 30.15 850 25.1 20.3 68.5 43 7.4 45.4 20.62 0.812
13:24 1021 30.15 850 25.1 20.3 68.5 42 7 44.6 20.54 0.809
13:25 1021 30.15 850 25.1 20.3 68.6 38 5.8 42.4 20.58 0.81
13:26 1021 30.15 850 25.1 20.4 68.7 46 8.7 47.7 20.58 0.81
13:27 1021 30.15 850 25.1 20.4 68.7 50 9.6 49.3 20.63 0.812
13:28 1021 30.15 850 25.1 20.4 68.8 47 8.8 47.8 20.72 0.816
13:29 1021 30.15 850 25.1 20.5 68.8 46 8.7 47.7 20.68 0.814
13:30 1021 30.15 850 25.1 20.5 68.8 43 7.8 46 20.58 0.81
13:31 1021 30.15 850 25.1 20.4 68.8 38 5.6 42.1 20.55 0.809
13:32 1021 30.15 850 25.1 20.4 68.8 45 8.2 46.7 20.55 0.809
13:33 1021 30.15 850 25.1 20.4 68.7 42 7.2 45 20.6 0.811
13:34 1021 30.15 850 25.1 20.4 68.7 47 8.7 47.6 20.54 0.809
13:35 1021 30.15 850 25.1 20.4 68.7 45 8.3 47 20.56 0.809
13:36 1021 30.15 850 25.1 20.4 68.7 45 8.1 46.6 20.63 0.812
13:37 1021 30.15 850 25.1 20.4 68.8 43 7.6 45.7 20.62 0.812
13:38 1021 30.15 850 25.1 20.4 68.8 47 9 48.3 20.74 0.817
13:39 1021 30.15 850 25.1 20.5 68.9 40 6.5 43.7 20.85 0.821
13:40 1021 30.15 850 25.1 20.5 68.9 49 9.5 49.2 20.85 0.821
13:41 1021 30.15 850 25.1 20.6 69 41 7.1 44.8 20.96 0.825
13:42 1021 30.15 850 25.1 20.6 69.1 50 9.9 49.8 20.96 0.825
13:43 1021 30.15 850 25.1 20.6 69.1 46 8.9 48 20.97 0.826
13:44 1021 30.15 850 25.1 20.6 69.1 35 4.7 40.5 20.89 0.822
13:45 1021 30.15 850 25.1 20.5 69 49 9.6 49.2 20.82 0.82
13:46 1021 30.15 850 25.1 20.6 69.1 48 9.3 48.7 20.9 0.823
13:47 1021 30.15 850 25.1 20.6 69.1 47 9 48.1 20.81 0.819
13:48 1021 30.15 850 25.1 20.7 69.3 50 9.9 49.9 20.87 0.822
13:49 1021 30.15 850 25.1 20.7 69.3 52 10.5 51 20.94 0.824
13:50 1021 30.15 850 25.1 20.8 69.4 53 10.9 51.6 21.02 0.828
13:51 1021 30.15 850 25.1 20.9 69.6 40 6.9 44.4 21.05 0.829
13:52 1021 30.15 850 25.1 20.9 69.6 44 8.5 47.3 21.09 0.83
13:53 1021 30.15 850 25.1 21 69.7 48 9.6 49.4 21.14 0.832
13:54 1021 30.15 850 25.1 20.9 69.6 49 9.8 49.7 21.12 0.831
13:55 1021 30.15 850 25.1 20.9 69.5 46 9.1 48.4 21.13 0.832
13:56 1021 30.15 850 25.1 20.8 69.4 50 10.2 50.4 21.08 0.83
13:57 1021 30.15 850 25.1 20.8 69.5 42 7.5 45.5 21.08 0.83
13:58 1021 30.15 850 25.1 20.9 69.5 46 8.9 47.9 21.08 0.83
13:59 1021 30.15 850 25.1 20.9 69.6 44 8.2 46.7 21.12 0.831
14:00 1021 30.15 850 25.1 20.9 69.6 47 9.3 48.7 21.12 0.831
14:01 1021 30.15 850 25.1 20.9 69.6 46 9 48.2 21.07 0.83
14:02 1021 30.15 850 25.1 20.9 69.5 48 9.5 49.1 21.1 0.831
14:03 1021 30.15 850 25.1 20.9 69.6 46 9.1 48.4 21.08 0.83
14:04 1021 30.15 850 25.1 21 69.8 46 9.1 48.4 21.25 0.837
14:05 1021 30.15 850 25.1 21 69.9 48 9.7 49.4 21.24 0.836
14:06 1021 30.15 850 25.1 21 69.9 49 10 50 21.26 0.837
14:07 1021 30.15 850 25.1 21 69.7 42 7.8 46 21.2 0.835
14:08 1021 30.15 850 25.1 20.9 69.7 43 8 46.5 21.16 0.833
14:09 1021 30.15 850 25.1 20.9 69.6 43 8 46.5 21.14 0.832
14:10 1021 30.15 850 25.1 20.9 69.7 43 8.2 46.7 21.21 0.835
14:11 1021 30.15 850 25.1 21 69.8 41 7.3 45.1 21.25 0.837
14:12 1021 30.15 850 25.1 21.1 70 47 9.6 49.3 21.35 0.841
14:13 1021 30.15 850 25.1 21.3 70.3 47 9.8 49.6 21.47 0.845
14:14 1021 30.15 850 25.1 21.3 70.3 45 9 48.3 21.4 0.843
14:15 1021 30.15 850 25.1 21.2 70.1 43 8.3 47 21.26 0.837
14:16 1021 30.15 850 25.1 21.1 70 51 10.9 51.5 21.16 0.833
14:17 1021 30.15 850 25.1 21.1 70 41 7.6 45.7 21.24 0.836
14:18 1021 30.15 850 25.1 21 69.9 47 9.3 48.8 21.16 0.833
14:19 1021 30.15 850 25.1 21 69.8 43 7.9 46.3 21.19 0.834
14:20 1021 30.15 850 25.1 21 69.9 36 5.5 41.9 21.17 0.833
14:21 1021 30.15 850 25.1 21.1 70 41 7.6 45.7 21.18 0.834
14:22 1020 30.12 850 25.1 21.1 70 46 9.3 48.8 21.33 0.84
14:23 1021 30.15 850 25.1 21.2 70.1 44 8.5 47.3 21.39 0.842
14:24 1020 30.12 850 25.1 21.2 70.2 45 9 48.3 21.42 0.843
14:25 1020 30.12 850 25.1 21.2 70.2 47 9.5 49.2 21.43 0.844
14:26 1021 30.15 850 25.1 21.3 70.3 38 6.4 43.5 21.42 0.843
14:27 1021 30.15 850 25.1 21.2 70.2 43 8.2 46.7 21.33 0.84
14:28 1021 30.15 850 25.1 21.2 70.1 49 10.2 50.3 21.36 0.841
14:29 1021 30.15 850 25.1 21.2 70.2 43 8.4 47.1 21.35 0.841
14:30 1020 30.12 850 25.1 21.2 70.1 39 6.9 44.3 21.37 0.841
14:31 1021 30.15 850 25.1 21.1 70 45 9 48.2 21.37 0.841
14:32 1020 30.12 850 25.1 21.1 70.1 38 6.6 43.9 21.42 0.843
14:33 1020 30.12 850 25.1 21.2 70.2 36 5.7 42.2 21.46 0.845
14:34 1020 30.12 850 25.1 21.4 70.5 46 9.4 48.9 21.64 0.852
14:35 1020 30.12 850 25.1 21.4 70.6 45 9 48.3 21.76 0.857
14:36 1020 30.12 850 25.1 21.6 70.8 50 10.9 51.7 21.85 0.86
14:37 1020 30.12 850 25.1 21.7 71.1 42 8.6 47.4 21.97 0.865
14:38 1020 30.12 850 25.1 21.7 71.1 51 11.2 52.1 21.86 0.861
14:39 1020 30.12 850 25.1 21.7 71.1 43 8.8 47.8 21.97 0.865
14:40 1020 30.12 850 25.1 21.7 71 42 8.5 47.2 21.88 0.861
14:41 1020 30.12 850 25.1 21.6 70.8 37 6.4 43.6 21.81 0.859
14:42 1020 30.12 850 25.1 21.4 70.6 45 9.2 48.5 21.68 0.854
14:43 1020 30.12 850 25.1 21.4 70.6 51 11.1 51.9 21.77 0.857
14:44 1020 30.12 850 25.1 21.5 70.7 44 9 48.3 21.78 0.857
14:45 1020 30.12 850 25.1 21.6 70.9 49 10.6 51.1 21.82 0.859
14:46 1020 30.12 850 25.1 21.6 70.9 44 8.9 48.1 21.87 0.861
14:47 1020 30.12 850 25.1 21.6 70.9 40 7.6 45.7 21.78 0.857
14:48 1020 30.12 850 25.1 21.6 70.9 42 8.3 47 21.73 0.856
14:49 1020 30.12 850 25.1 21.6 71 41 8.2 46.7 21.88 0.861
14:50 1020 30.12 850 25.1 21.7 71 44 9 48.1 21.84 0.86
14:51 1020 30.12 850 25.1 21.7 71.1 43 8.8 47.8 21.89 0.862
14:52 1020 30.12 850 25.1 21.8 71.2 47 10.1 50.2 21.95 0.864
14:53 1020 30.12 850 25.1 21.8 71.3 49 10.7 51.2 22.05 0.868
14:54 1020 30.12 850 25.1 22 71.5 41 8.3 46.9 22.18 0.873
14:55 1020 30.12 850 25.1 22 71.6 50 11.4 52.4 22.23 0.875
14:56 1020 30.12 850 25.1 22 71.6 45 9.6 49.3 22.23 0.875
14:57 1021 30.15 850 25.1 21.9 71.4 43 9 48.2 22.05 0.868
14:58 1021 30.15 850 25.1 21.8 71.2 35 5.9 42.7 21.92 0.863
14:59 1020 30.12 850 25.1 21.7 71 37 6.7 44 21.91 0.863
15:00 1020 30.12 850 25.1 21.8 71.3 46 9.8 49.6 22.09 0.87
15:01 1020 30.12 850 25.1 22.1 71.8 48 10.8 51.4 22.39 0.881
15:02 1020 30.12 850 25.1 22.2 72 37 6.8 44.3 22.37 0.881
15:03 1020 30.12 850 25.1 22.2 71.9 45 9.7 49.5 22.3 0.878
15:04 1020 30.12 850 25.1 22.1 71.7 37 7 44.6 22.23 0.875
15:05 1020 30.12 850 25.1 22 71.5 36 6.5 43.7 22.12 0.871
15:06 1020 30.12 850 25.1 21.9 71.5 40 8.1 46.5 22.14 0.872
15:07 1020 30.12 850 25.1 22 71.6 46 10 50.1 22.26 0.876
15:08 1020 30.12 850 25.1 22.1 71.8 45 9.7 49.4 22.35 0.88
15:09 1020 30.12 850 25.1 22.2 71.9 44 9.5 49.1 22.46 0.884
15:10 1020 30.12 850 25.1 22.2 72 45 9.8 49.6 22.48 0.885
15:11 1020 30.12 850 25.1 22.3 72.2 44 9.6 49.3 22.48 0.885
15:12 1020 30.12 850 25.1 22.3 72.1 44 9.7 49.4 22.39 0.881
15:13 1020 30.12 850 25.1 22.2 72 40 8.2 46.7 22.34 0.88
15:14 1020 30.12 850 25.1 22.1 71.9 41 8.5 47.3 22.26 0.876
15:15 1020 30.12 850 25.1 22.1 71.7 49 11 51.8 22.18 0.873
15:16 1020 30.12 850 25.1 22.1 71.7 41 8.3 47 22.12 0.871
15:17 1020 30.12 850 25.1 21.9 71.5 44 9.5 49 22.09 0.87
15:18 1020 30.12 850 25.1 22 71.6 41 8.4 47.1 22.18 0.873
15:19 1020 30.12 850 25.1 22 71.6 42 8.7 47.7 22.2 0.874
15:20 1020 30.12 850 25.1 22 71.6 37 7 44.5 22.18 0.873
15:21 1020 30.12 850 25.1 21.9 71.5 46 9.9 49.8 22.1 0.87
15:22 1020 30.12 850 25.1 21.9 71.4 46 9.8 49.7 22.18 0.873
15:23 1020 30.12 850 25.1 22 71.6 42 8.7 47.6 22.22 0.875
15:24 1020 30.12 850 25.1 22.1 71.7 37 6.9 44.3 22.25 0.876
15:25 1020 30.12 850 25.1 22.2 71.9 47 10.4 50.8 22.32 0.879
15:26 1020 30.12 850 25.1 22.3 72.1 44 9.5 49.1 22.52 0.887
15:27 1020 30.12 850 25.1 22.3 72.2 47 10.5 51 22.56 0.888
15:28 1020 30.12 849 25.07 22.3 72.2 45 9.9 49.9 22.64 0.891
15:29 1020 30.12 850 25.1 22.4 72.4 42 9.1 48.4 22.65 0.892
15:30 1020 30.12 850 25.1 22.5 72.4 43 9.3 48.8 22.61 0.89
15:31 1020 30.12 850 25.1 22.4 72.4 45 10.2 50.4 22.56 0.888
15:32 1020 30.12 850 25.1 22.4 72.4 43 9.6 49.3 22.53 0.887
15:33 1020 30.12 850 25.1 22.4 72.2 40 8.3 47 22.38 0.881
15:34 1020 30.12 850 25.1 22.2 72 36 6.6 43.8 22.3 0.878
15:35 1020 30.12 849 25.07 22.2 72 41 8.7 47.7 22.4 0.882
15:36 1020 30.12 849 25.07 22.3 72.2 45 10 49.9 22.5 0.886
15:37 1020 30.12 849 25.07 22.3 72.2 36 6.9 44.4 22.52 0.887
15:38 1020 30.12 849 25.07 22.2 72 39 7.8 46.1 22.42 0.883
15:39 1020 30.12 849 25.07 22.1 71.8 41 8.5 47.3 22.36 0.88
15:40 1020 30.12 849 25.07 22.1 71.8 43 9.1 48.3 22.27 0.877
15:41 1020 30.12 849 25.07 22.2 71.9 42 8.9 48.1 22.33 0.879
15:42 1020 30.12 849 25.07 22.2 72 44 9.7 49.4 22.56 0.888
15:43 1020 30.12 849 25.07 22.2 72 45 10 50 22.5 0.886
15:44 1020 30.12 849 25.07 22.2 71.9 46 10.1 50.3 22.54 0.887
15:45 1020 30.12 849 25.07 22.2 72 47 10.5 50.8 22.6 0.89
15:46 1020 30.12 849 25.07 22.4 72.3 44 9.9 49.8 22.68 0.893
15:47 1020 30.12 849 25.07 22.5 72.4 43 9.6 49.3 22.66 0.892
15:48 1020 30.12 849 25.07 22.5 72.4 40 8.2 46.8 22.61 0.89
15:49 1020 30.12 849 25.07 22.4 72.3 45 10 49.9 22.57 0.889
15:50 1020 30.12 849 25.07 22.4 72.4 43 9.3 48.7 22.64 0.891
15:51 1020 30.12 849 25.07 22.4 72.3 43 9.4 48.9 22.6 0.89
15:52 1020 30.12 849 25.07 22.3 72.2 37 7.2 45 22.59 0.889
15:53 1020 30.12 849 25.07 22.3 72.2 45 9.9 49.7 22.56 0.888
15:54 1020 30.12 849 25.07 22.4 72.3 37 7.1 44.8 22.69 0.893
15:55 1020 30.12 849 25.07 22.4 72.3 43 9.5 49.2 22.71 0.894
15:56 1020 30.12 849 25.07 22.3 72.2 49 11.3 52.3 22.74 0.895
15:57 1020 30.12 849 25.07 22.4 72.2 38 7.7 45.9 22.71 0.894
15:58 1020 30.12 849 25.07 22.3 72.2 39 7.9 46.3 22.62 0.891
15:59 1020 30.12 849 25.07 22.4 72.3 35 6.3 43.3 22.57 0.889
16:00 1020 30.12 849 25.07 22.4 72.4 33 5.7 42.3 22.63 0.891
16:01 1020 30.12 849 25.07 22.5 72.5 40 8.3 47 22.65 0.892
16:02 1020 30.12 849 25.07 22.5 72.4 42 9 48.2 22.61 0.89
16:03 1020 30.12 849 25.07 22.4 72.3 42 9 48.2 22.59 0.889
16:04 1020 30.12 849 25.07 22.5 72.4 36 6.7 44.1 22.64 0.891
16:05 1020 30.12 849 25.07 22.5 72.4 31 4.7 40.4 22.64 0.891
16:06 1020 30.12 849 25.07 22.4 72.4 42 9 48.2 22.63 0.891
16:07 1020 30.12 849 25.07 22.5 72.5 41 8.7 47.6 22.73 0.895
16:08 1020 30.12 849 25.07 22.6 72.6 38 7.6 45.7 22.75 0.896
16:09 1020 30.12 849 25.07 22.6 72.6 41 9 48.2 22.71 0.894
16:10 1020 30.12 849 25.07 22.6 72.6 37 7.3 45.2 22.72 0.894
16:11 1020 30.12 849 25.07 22.5 72.6 33 5.5 41.9 22.67 0.893
16:12 1020 30.12 849 25.07 22.5 72.5 33 5.5 42 22.7 0.894
16:13 1020 30.12 849 25.07 22.6 72.7 36 7.1 44.7 22.85 0.9
16:14 1020 30.12 849 25.07 22.7 72.9 43 9.8 49.6 22.95 0.904
16:15 1020 30.12 849 25.07 22.8 73.1 40 8.5 47.3 22.99 0.905
16:16 1020 30.12 849 25.07 22.8 73.1 41 9 48.2 22.94 0.903
16:17 1020 30.12 849 25.07 22.8 73.1 43 9.9 49.8 23.01 0.906
16:18 1020 30.12 849 25.07 22.9 73.1 39 8.4 47.1 23.05 0.907
16:19 1020 30.12 849 25.07 22.9 73.1 34 6.6 43.8 23.01 0.906
16:20 1020 30.12 849 25.07 22.8 73.1 33 6.1 43 22.98 0.905
16:21 1020 30.12 849 25.07 22.7 72.9 33 5.9 42.5 22.91 0.902
16:22 1020 30.12 849 25.07 22.7 72.9 43 9.7 49.5 22.92 0.902
16:23 1020 30.12 849 25.07 22.8 73 40 8.6 47.4 23 0.906
16:24 1020 30.12 849 25.07 22.9 73.1 38 8.1 46.6 23.06 0.908
16:25 1020 30.12 849 25.07 22.8 73.1 35 6.6 43.8 23.02 0.906
16:26 1020 30.12 849 25.07 22.8 73 35 6.8 44.2 23.01 0.906
16:27 1020 30.12 849 25.07 22.7 72.9 31 5 40.9 22.96 0.904
16:28 1020 30.12 849 25.07 22.8 73.1 43 9.9 49.8 22.99 0.905
16:29 1020 30.12 849 25.07 23 73.3 40 8.7 47.7 23.14 0.911
16:30 1020 30.12 849 25.07 23.1 73.5 36 7.4 45.3 23.2 0.913
16:31 1020 30.12 849 25.07 23 73.5 36 7.3 45.1 23.13 0.911
16:32 1020 30.12 849 25.07 22.9 73.2 38 8 46.3 23.04 0.907
16:33 1020 30.12 849 25.07 22.7 72.9 41 8.9 48.1 22.96 0.904
16:34 1020 30.12 849 25.07 22.8 73 41 8.9 48.1 23.05 0.907
16:35 1020 30.12 849 25.07 22.8 73 39 8.5 47.3 23.05 0.907
16:36 1020 30.12 849 25.07 22.8 73.1 37 7.5 45.5 23.04 0.907
16:37 1020 30.12 849 25.07 22.8 73.1 35 6.7 44 23.03 0.907
16:38 1020 30.12 849 25.07 22.7 72.9 42 9.5 49.1 22.99 0.905
16:39 1020 30.12 849 25.07 22.7 72.8 32 5.4 41.8 22.99 0.905
16:40 1020 30.12 849 25.07 22.7 72.8 36 7.2 45 22.99 0.905
16:41 1020 30.12 849 25.07 22.7 72.8 35 6.7 44.1 22.98 0.905
16:42 1020 30.12 849 25.07 22.8 73 42 9.4 49 23 0.906
16:43 1020 30.12 849 25.07 22.9 73.1 38 8.1 46.5 23.05 0.907
16:44 1020 30.12 849 25.07 22.9 73.2 42 9.4 48.9 23.02 0.906
16:45 1020 30.12 849 25.07 22.9 73.3 42 9.6 49.2 23.11 0.91
16:46 1020 30.12 849 25.07 23 73.3 40 8.8 47.8 23.18 0.913
16:47 1020 30.12 849 25.07 23 73.3 38 8.1 46.6 23.13 0.911
16:48 1020 30.12 849 25.07 22.9 73.3 33 5.9 42.6 23.05 0.907
16:49 1020 30.12 849 25.07 22.9 73.1 39 8.3 46.9 23.05 0.907
16:50 1020 30.12 849 25.07 22.9 73.1 40 8.6 47.5 23.02 0.906
16:51 1020 30.12 849 25.07 22.9 73.2 37 7.6 45.7 23.06 0.908
16:52 1020 30.12 849 25.07 22.9 73.2 35 6.9 44.4 23.03 0.907
16:53 1020 30.12 849 25.07 22.9 73.2 40 8.7 47.7 23.03 0.907
16:54 1020 30.12 849 25.07 22.9 73.3 42 9.4 48.9 23.03 0.907
16:55 1020 30.12 849 25.07 23 73.5 41 9.1 48.3 23.13 0.911
16:56 1020 30.12 849 25.07 23.1 73.5 35 6.9 44.4 23.22 0.914
16:57 1020 30.12 849 25.07 23 73.5 35 6.9 44.4 23.18 0.913
16:58 1020 30.12 849 25.07 22.9 73.3 37 7.6 45.7 23.15 0.911
16:59 1020 30.12 849 25.07 22.9 73.3 38 8 46.5 23.13 0.911
17:00 1020 30.12 849 25.07 23 73.3 40 8.9 48.1 23.13 0.911
17:01 1020 30.12 849 25.07 23 73.4 36 7.3 45.1 23.09 0.909
17:02 1020 30.12 849 25.07 23 73.3 35 6.8 44.2 23 0.906
17:03 1020 30.12 849 25.07 22.9 73.2 37 7.8 46 22.95 0.904
17:04 1020 30.12 849 25.07 22.9 73.1 41 9 48.2 22.95 0.904
17:05 1020 30.12 849 25.07 22.9 73.2 39 8.5 47.3 23.02 0.906
17:06 1020 30.12 849 25.07 22.8 73 35 6.9 44.5 23.01 0.906
17:07 1020 30.12 849 25.07 22.8 73 37 7.4 45.4 22.99 0.905
17:08 1020 30.12 849 25.07 22.7 72.9 31 4.9 40.8 22.93 0.903
17:09 1020 30.12 849 25.07 22.8 73 38 7.9 46.3 23.02 0.906
17:10 1020 30.12 849 25.07 22.9 73.2 37 7.5 45.5 23.16 0.912
17:11 1020 30.12 849 25.07 22.9 73.2 35 6.8 44.3 23.19 0.913
17:12 1020 30.12 849 25.07 22.9 73.1 30 4.3 39.8 23.17 0.912
17:13 1020 30.12 849 25.07 22.9 73.3 39 8.5 47.4 23.16 0.912
17:14 1020 30.12 849 25.07 23.1 73.6 36 7.4 45.3 23.26 0.916
17:15 1020 30.12 849 25.07 23.1 73.6 39 8.6 47.4 23.3 0.917
17:16 1020 30.12 849 25.07 23.1 73.6 37 8 46.4 23.31 0.918
17:17 1020 30.12 849 25.07 23.2 73.8 37 8 46.3 23.4 0.921
17:18 1020 30.12 849 25.07 23.3 73.9 33 6.3 43.3 23.36 0.92
17:19 1020 30.12 849 25.07 23.2 73.8 33 6.4 43.6 23.28 0.917
17:20 1020 30.12 849 25.07 23.3 73.9 36 7.7 45.9 23.21 0.914
17:21 1020 30.12 849 25.07 23.3 73.9 41 9.4 48.9 23.31 0.918
17:22 1020 30.12 849 25.07 23.2 73.8 37 8 46.4 23.27 0.916
17:23 1020 30.12 849 25.07 23.2 73.8 35 7.3 45.1 23.31 0.918
17:24 1020 30.12 849 25.07 23.1 73.6 36 7.5 45.4 23.3 0.917
17:25 1020 30.12 849 25.07 23.1 73.5 38 8 46.4 23.31 0.918
17:26 1020 30.12 849 25.07 22.9 73.3 36 7.3 45.2 23.24 0.915
17:27 1020 30.12 849 25.07 22.9 73.1 32 5.4 41.7 23.16 0.912
17:28 1020 30.12 849 25.07 22.9 73.1 39 8.2 46.8 23.18 0.913
17:29 1020 30.12 849 25.07 22.9 73.2 34 6.3 43.3 23.22 0.914
17:30 1020 30.12 849 25.07 22.9 73.3 39 8.4 47 23.22 0.914
17:31 1020 30.12 849 25.07 23 73.5 33 6.1 43.1 23.33 0.919
17:32 1020 30.12 849 25.07 23.2 73.8 38 8.1 46.7 23.55 0.927
17:33 1020 30.12 849 25.07 23.4 74.1 39 8.7 47.7 23.7 0.933
17:34 1020 30.12 849 25.07 23.5 74.3 32 5.9 42.7 23.64 0.931
17:35 1020 30.12 849 25.07 23.4 74.1 36 7.7 45.9 23.58 0.928
17:36 1020 30.12 849 25.07 23.2 73.8 33 6.1 43 23.52 0.926
17:37 1020 30.12 849 25.07 23.2 73.7 32 5.8 42.5 23.47 0.924
17:38 1020 30.12 849 25.07 23.1 73.6 37 7.9 46.3 23.51 0.926
17:39 1020 30.12 849 25.07 23.1 73.6 32 5.7 42.3 23.51 0.926
17:40 1020 30.12 849 25.07 23.1 73.7 33 6.3 43.3 23.59 0.929
17:41 1020 30.12 849 25.07 23.2 73.8 37 8 46.5 23.64 0.931
17:42 1020 30.12 849 25.07 23.3 73.9 40 9 48.3 23.67 0.932
17:43 1020 30.12 849 25.07 23.3 73.9 35 7.3 45.1 23.67 0.932
17:44 1020 30.12 849 25.07 23.3 73.9 35 7.1 44.8 23.65 0.931
17:45 1020 30.12 849 25.07 23.3 74 39 8.8 47.8 23.72 0.934
17:46 1020 30.12 849 25.07 23.4 74 33 6.5 43.6 23.7 0.933
17:47 1020 30.12 849 25.07 23.3 74 34 6.6 43.9 23.69 0.933
17:48 1020 30.12 849 25.07 23.4 74 40 9.3 48.7 23.74 0.935
17:49 1020 30.12 849 25.07 23.4 74.2 34 6.9 44.5 23.66 0.931
17:50 1020 30.12 849 25.07 23.5 74.2 31 5.7 42.3 23.65 0.931
17:51 1020 30.12 849 25.07 23.5 74.2 32 6 42.8 23.54 0.927
17:52 1020 30.12 849 25.07 23.5 74.3 34 6.8 44.2 23.6 0.929
17:53 1019 30.09 849 25.07 23.6 74.4 35 7.3 45.1 23.74 0.935
17:54 1020 30.12 849 25.07 23.7 74.6 38 8.6 47.4 23.84 0.939
17:55 1020 30.12 849 25.07 23.7 74.7 35 7.8 46 23.9 0.941
17:56 1020 30.12 849 25.07 23.7 74.6 36 8 46.4 23.91 0.941
17:57 1020 30.12 849 25.07 23.7 74.6 34 7.2 45 23.79 0.937
17:58 1020 30.12 849 25.07 23.6 74.5 32 6.2 43.1 23.71 0.933
17:59 1020 30.12 849 25.07 23.5 74.3 35 7.5 45.4 23.68 0.932
18:00 1020 30.12 849 25.07 23.5 74.3 33 6.4 43.6 23.68 0.932
18:01 1019 30.09 849 25.07 23.5 74.2 31 5.7 42.3 23.57 0.928
18:02 1019 30.09 849 25.07 23.6 74.5 33 6.5 43.7 23.64 0.931
18:03 1019 30.09 849 25.07 23.7 74.6 32 6.4 43.6 23.7 0.933
18:04 1019 30.09 849 25.07 23.5 74.4 32 6.2 43.1 23.65 0.931
18:05 1019 30.09 849 25.07 23.4 74.1 32 6 42.8 23.53 0.926
18:06 1019 30.09 849 25.07 23.3 74 36 7.7 45.9 23.42 0.922
18:07 1019 30.09 849 25.07 23.3 73.9 33 6.3 43.4 23.4 0.921
18:08 1019 30.09 849 25.07 23.3 74 37 8.2 46.7 23.42 0.922
18:09 1019 30.09 849 25.07 23.4 74.1 33 6.5 43.6 23.43 0.922
18:10 1019 30.09 849 25.07 23.5 74.3 32 6.1 43.1 23.56 0.928
18:11 1019 30.09 849 25.07 23.5 74.3 28 4.4 40 23.51 0.926
18:12 1019 30.09 849 25.07 23.5 74.3 32 6 42.8 23.55 0.927
18:13 1019 30.09 849 25.07 23.6 74.4 32 5.9 42.7 23.56 0.928
18:14 1019 30.09 849 25.07 23.6 74.4 31 5.7 42.2 23.65 0.931
18:15 1019 30.09 849 25.07 23.6 74.5 33 6.8 44.3 23.74 0.935
18:16 1019 30.09 849 25.07 23.7 74.6 37 8.3 47 23.88 0.94
18:17 1019 30.09 849 25.07 23.8 74.8 36 8.1 46.6 23.9 0.941
18:18 1019 30.09 849 25.07 23.8 74.9 34 7.2 45 23.86 0.939
18:19 1019 30.09 849 25.07 23.8 74.8 40 9.4 49 23.88 0.94
18:20 1019 30.09 849 25.07 23.9 74.9 37 8.5 47.3 23.92 0.942
18:21 1019 30.09 849 25.07 23.9 75 33 6.9 44.5 23.94 0.943
18:22 1019 30.09 849 25.07 23.8 74.9 35 7.7 45.9 23.84 0.939
18:23 1019 30.09 849 25.07 23.8 74.8 30 5.3 41.6 23.78 0.936
18:24 1019 30.09 848 25.04 23.7 74.7 29 5 40.9 23.7 0.933
18:25 1019 30.09 848 25.04 23.7 74.7 32 6.1 43 23.71 0.933
18:26 1019 30.09 848 25.04 23.8 74.8 39 9.1 48.3 23.74 0.935
18:27 1019 30.09 848 25.04 23.8 74.8 30 5.2 41.3 23.84 0.939
18:28 1019 30.09 848 25.04 23.8 74.9 35 7.9 46.1 23.84 0.939
18:29 1019 30.09 848 25.04 23.9 75 43 10.6 51.1 24.09 0.948
18:30 1019 30.09 848 25.04 24 75.2 37 8.4 47.2 24.25 0.955
18:31 1019 30.09 848 25.04 24.1 75.4 33 6.9 44.3 24.28 0.956
18:32 1019 30.09 848 25.04 24.1 75.5 29 5.3 41.6 24.38 0.96
18:33 1019 30.09 848 25.04 24 75.3 36 8.4 47.2 24.23 0.954
18:34 1019 30.09 848 25.04 24 75.1 35 7.7 45.8 24.09 0.948
18:35 1019 30.09 848 25.04 23.9 75 30 5.4 41.8 23.9 0.941
18:36 1019 30.09 848 25.04 23.7 74.7 26 3.4 38.2 23.7 0.933
18:37 1019 30.09 848 25.04 23.6 74.5 31 5.5 41.9 23.63 0.93
18:38 1019 30.09 848 25.04 23.7 74.6 33 6.6 43.8 23.82 0.938
18:39 1019 30.09 848 25.04 23.8 74.8 36 8.1 46.6 23.92 0.942
18:40 1019 30.09 848 25.04 24 75.1 32 6.7 44 24.18 0.952
18:41 1019 30.09 848 25.04 24.1 75.4 31 6 42.8 24.14 0.95
18:42 1019 30.09 848 25.04 24.1 75.3 35 7.9 46.3 24.1 0.949
18:43 1019 30.09 848 25.04 24 75.2 34 7.5 45.5 24.05 0.947
18:44 1019 30.09 848 25.04 23.9 75 44 11.1 52 24.03 0.946
18:45 1019 30.09 848 25.04 23.9 75 37 8.4 47.1 23.97 0.944
18:46 1019 30.09 848 25.04 23.9 75 33 6.8 44.2 23.87 0.94
18:47 1019 30.09 848 25.04 23.8 74.9 31 5.7 42.3 23.81 0.937
18:48 1019 30.09 848 25.04 23.7 74.7 35 7.6 45.7 23.8 0.937
18:49 1019 30.09 848 25.04 23.6 74.5 34 7.2 44.9 23.73 0.934
18:50 1019 30.09 848 25.04 23.4 74.2 29 4.7 40.5 23.6 0.929
18:51 1019 30.09 848 25.04 23.3 74 32 6.1 43 23.46 0.924
18:52 1019 30.09 848 25.04 23.3 73.9 36 7.4 45.4 23.46 0.924
18:53 1019 30.09 848 25.04 23.3 73.9 35 7 44.7 23.43 0.922
18:54 1019 30.09 848 25.04 23.3 74 30 5.1 41.2 23.41 0.922
18:55 1019 30.09 848 25.04 23.3 74 35 7.2 44.9 23.38 0.92
18:56 1019 30.09 848 25.04 23.3 74 35 7.2 44.9 23.4 0.921
18:57 1019 30.09 848 25.04 23.3 74 33 6.3 43.4 23.34 0.919
18:58 1019 30.09 848 25.04 23.4 74 35 7.2 45 23.37 0.92
18:59 1019 30.09 848 25.04 23.4 74 33 6.2 43.1 23.34 0.919
19:00 1019 30.09 848 25.04 23.4 74.1 29 4.6 40.3 23.41 0.922
19:01 1019 30.09 848 25.04 23.5 74.3 32 6 42.7 23.51 0.926
19:02 1019 30.09 848 25.04 23.6 74.5 31 5.7 42.3 23.69 0.933
19:03 1019 30.09 848 25.04 23.7 74.7 33 6.6 43.8 23.76 0.935
19:04 1019 30.09 848 25.04 23.8 74.9 27 4 39.2 23.86 0.939
19:05 1019 30.09 848 25.04 23.9 74.9 31 6.1 43 23.81 0.937
19:06 1019 30.09 848 25.04 23.9 74.9 28 4.5 40.2 23.9 0.941
19:07 1019 30.09 848 25.04 24 75.1 31 5.8 42.5 23.98 0.944
19:08 1019 30.09 848 25.04 24.1 75.4 28 4.7 40.5 24.04 0.946
19:09 1019 30.09 848 25.04 24.2 75.6 32 6.7 44 24.2 0.953
19:10 1019 30.09 848 25.04 24.3 75.7 32 6.8 44.3 24.3 0.957
19:11 1019 30.09 848 25.04 24.4 75.8 28 5.1 41.1 24.4 0.961
19:12 1019 30.09 848 25.04 24.3 75.8 28 4.8 40.7 24.38 0.96
19:13 1019 30.09 848 25.04 24.4 75.8 34 7.8 46 24.38 0.96
19:14 1019 30.09 848 25.04 24.4 75.9 29 5.2 41.4 24.41 0.961
19:15 1019 30.09 848 25.04 24.4 76 32 6.9 44.4 24.34 0.958
19:16 1019 30.09 848 25.04 24.4 75.8 31 6.5 43.7 24.19 0.952
19:17 1019 30.09 848 25.04 24.1 75.3 31 6.3 43.3 23.9 0.941
19:18 1019 30.09 848 25.04 23.8 74.8 31 5.7 42.3 23.6 0.929
19:19 1019 30.09 848 25.04 23.4 74.2 31 5.7 42.2 23.4 0.921
19:20 1019 30.09 848 25.04 23.2 73.8 31 5.3 41.5 23.2 0.913
19:21 1019 30.09 848 25.04 23.1 73.6 29 4.3 39.8 23.14 0.911
19:22 1019 30.09 848 25.04 23.1 73.5 32 5.6 42.1 23.17 0.912
19:23 1019 30.09 848 25.04 23.1 73.6 32 5.9 42.6 23.25 0.915
19:24 1019 30.09 848 25.04 23.1 73.7 26 3 37.5 23.31 0.918
19:25 1019 30.09 848 25.04 23.3 73.9 32 5.9 42.6 23.42 0.922
19:26 1019 30.09 848 25.04 23.5 74.2 26 3.1 37.5 23.61 0.93
19:27 1019 30.09 848 25.04 23.6 74.4 26 3.1 37.6 23.7 0.933
19:28 1019 30.09 848 25.04 23.7 74.6 30 5.5 41.8 23.79 0.937
19:29 1019 30.09 848 25.04 23.8 74.8 31 5.6 42.2 23.86 0.939
19:30 1019 30.09 848 25.04 23.8 74.8 33 6.6 43.8 23.8 0.937
19:31 1019 30.09 848 25.04 23.7 74.6 30 5.2 41.3 23.73 0.934
19:32 1019 30.09 848 25.04 23.7 74.6 33 6.5 43.8 23.68 0.932
19:33 1019 30.09 848 25.04 23.6 74.5 29 4.8 40.7 23.62 0.93
19:34 1019 30.09 848 25.04 23.6 74.5 33 6.5 43.6 23.54 0.927
19:35 1019 30.09 848 25.04 23.5 74.3 31 5.6 42.1 23.43 0.922
19:36 1019 30.09 848 25.04 23.4 74.2 29 4.7 40.5 23.38 0.92
19:37 1019 30.09 848 25.04 23.4 74.2 31 5.5 41.9 23.38 0.92
19:38 1019 30.09 848 25.04 23.4 74.1 29 4.6 40.3 23.41 0.922
19:39 1019 30.09 848 25.04 23.4 74.1 29 4.3 39.8 23.47 0.924
19:40 1019 30.09 848 25.04 23.5 74.2 32 6.2 43.2 23.53 0.926
19:41 1019 30.09 848 25.04 23.6 74.4 37 8.1 46.6 23.61 0.93
19:42 1019 30.09 848 25.04 23.5 74.4 32 6.1 43 23.64 0.931
19:43 1019 30.09 848 25.04 23.5 74.4 31 5.8 42.5 23.62 0.93
19:44 1019 30.09 848 25.04 23.5 74.3 28 3.9 39.1 23.59 0.929
19:45 1019 30.09 848 25.04 23.6 74.5 35 7.4 45.3 23.81 0.937
19:46 1019 30.09 848 25.04 23.8 74.8 35 7.7 45.8 24.08 0.948
19:47 1019 30.09 848 25.04 23.9 75 25 2.9 37.1 24.27 0.956
19:48 1019 30.09 848 25.04 23.9 74.9 24 2.3 36.1 24.44 0.962
19:49 1019 30.09 848 25.04 23.8 74.9 25 2.9 37.2 24.6 0.969
19:50 1019 30.09 848 25.04 23.8 74.8 24 2.4 36.3 24.73 0.974
19:51 1019 30.09 848 25.04 23.7 74.7 24 2.4 36.3 24.68 0.972
19:52 1019 30.09 848 25.04 23.7 74.7 25 2.6 36.6 24.69 0.972
19:53 1019 30.09 848 25.04 23.8 74.8 25 3 37.4 24.74 0.974
19:54 1019 30.09 848 25.04 23.9 75 29 4.9 40.8 24.87 0.979
19:55 1019 30.09 848 25.04 24.1 75.3 27 4.4 39.9 24.94 0.982
19:56 1019 30.09 848 25.04 24.2 75.6 31 6.2 43.2 24.98 0.983
19:57 1019 30.09 848 25.04 24.4 75.9 26 3.7 38.7 25.11 0.989
19:58 1019 30.09 848 25.04 24.5 76.1 27 4.4 40 25.25 0.994
19:59 1019 30.09 848 25.04 24.4 76 24 2.7 36.8 25.23 0.993
20:00 1019 30.09 848 25.04 24.5 76.1 35 8.1 46.6 25.23 0.993
20:01 1019 30.09 848 25.04 24.6 76.3 33 7.4 45.3 25.39 1
20:02 1019 30.09 848 25.04 24.7 76.4 33 7.3 45.2 25.33 0.997
20:03 1019 30.09 848 25.04 24.7 76.4 36 8.7 47.7 25.26 0.994
20:04 1019 30.09 848 25.04 24.7 76.5 35 8.5 47.3 25.31 0.996
20:05 1019 30.09 848 25.04 24.6 76.3 36 8.7 47.6 25.29 0.996
20:06 1019 30.09 848 25.04 24.5 76 36 8.8 47.8 25.18 0.991
20:07 1019 30.09 848 25.04 24.3 75.8 38 9.1 48.4 25 0.984
20:08 1019 30.09 848 25.04 24.1 75.5 35 8.1 46.5 24.75 0.974
20:09 1019 30.09 848 25.04 24 75.1 34 7.2 44.9 24.56 0.967
20:10 1019 30.09 848 25.04 23.8 74.9 39 9.2 48.6 24.3 0.957
20:11 1019 30.09 848 25.04 23.6 74.4 44 10.8 51.4 24.08 0.948
20:12 1019 30.09 848 25.04 23.3 73.9 46 11.1 51.9 23.88 0.94
20:13 1019 30.09 848 25.04 23 73.4 47 11.3 52.4 23.51 0.926
20:14 1019 30.09 848 25.04 22.7 72.9 47 11 51.8 23.24 0.915
20:15 1019 30.09 848 25.04 22.5 72.6 49 11.5 52.8 23.03 0.907
20:16 1019 30.09 848 25.04 22.3 72.1 47 10.7 51.2 22.81 0.898
20:17 1019 30.09 848 25.04 22.1 71.7 48 10.8 51.5 22.55 0.888
20:18 1019 30.09 848 25.04 21.9 71.3 49 11 51.7 22.36 0.88
20:19 1019 30.09 848 25.04 21.7 71.1 50 11 51.8 22.16 0.872
20:20 1019 30.09 848 25.04 21.6 70.8 51 11.2 52.1 22.03 0.867
20:21 1019 30.09 848 25.04 21.4 70.5 52 11.3 52.4 21.91 0.863
20:22 1019 30.09 848 25.04 21.2 70.2 53 11.3 52.4 21.71 0.855
20:23 1019 30.09 848 25.04 21.1 69.9 54 11.4 52.6 21.55 0.848
20:24 1019 30.09 848 25.04 21 69.7 55 11.7 53 21.4 0.843
20:25 1019 30.09 848 25.04 20.8 69.4 56 11.7 53 21.27 0.837
20:26 1019 30.09 848 25.04 20.7 69.2 57 11.9 53.5 21.11 0.831
20:27 1019 30.09 848 25.04 20.5 69 56 11.7 53 20.99 0.826
20:28 1019 30.09 848 25.04 20.4 68.8 57 11.7 53.1 20.86 0.821
20:29 1019 30.09 848 25.04 20.4 68.6 57 11.7 53.1 20.8 0.819
20:30 1019 30.09 848 25.04 20.2 68.4 59 12.1 53.8 20.68 0.814
20:31 1019 30.09 848 25.04 20.1 68.1 61 12.3 54.2 20.51 0.807
20:32 1019 30.09 848 25.04 19.9 67.7 60 12 53.6 20.31 0.8
20:33 1019 30.09 848 25.04 19.7 67.5 61 12.1 53.8 20.15 0.793
20:34 1019 30.09 848 25.04 19.6 67.3 61 12 53.7 20.03 0.789
20:35 1019 30.09 848 25.04 19.5 67.1 62 12.2 53.9 19.92 0.784
20:36 1019 30.09 848 25.04 19.3 66.8 62 11.9 53.5 19.84 0.781
20:37 1019 30.09 848 25.04 19.1 66.3 62 11.8 53.2 19.66 0.774
20:38 1019 30.09 848 25.04 18.8 65.9 61 11.3 52.4 19.43 0.765
20:39 1019 30.09 848 25.04 18.6 65.4 64 11.7 53 19.2 0.756
20:40 1019 30.09 848 25.04 18.4 65.2 65 11.8 53.2 18.98 0.747
20:41 1019 30.09 848 25.04 18.3 64.9 66 11.9 53.4 18.78 0.739
20:42 1019 30.09 848 25.04 18.1 64.5 67 11.9 53.5 18.58 0.731
20:43 1019 30.09 848 25.04 17.9 64.2 67 11.8 53.2 18.4 0.724
20:44 1019 30.09 848 25.04 17.8 64.1 66 11.6 52.8 18.32 0.721
20:45 1019 30.09 848 25.04 17.8 64.1 66 11.4 52.5 18.26 0.719
20:46 1019 30.09 848 25.04 17.8 64.1 66 11.4 52.6 18.27 0.719
20:47 1019 30.09 848 25.04 17.9 64.2 65 11.3 52.4 18.28 0.72
20:48 1019 30.09 848 25.04 17.9 64.2 65 11.2 52.2 18.26 0.719
20:49 1019 30.09 848 25.04 17.9 64.1 65 11.3 52.3 18.23 0.718
20:50 1019 30.09 848 25.04 17.9 64.1 66 11.5 52.6 18.2 0.717
20:51 1019 30.09 848 25.04 17.8 64.1 65 11.2 52.2 18.18 0.716
20:52 1019 30.09 848 25.04 17.8 64.1 65 11.2 52.2 18.17 0.715
20:53 1019 30.09 848 25.04 17.8 64.1 65 11.3 52.3 18.12 0.713
20:54 1019 30.09 848 25.04 17.8 64 65 11.2 52.2 18.12 0.713
20:55 1019 30.09 848 25.04 17.7 63.8 66 11.3 52.3 18.07 0.711
20:56 1019 30.09 848 25.04 17.5 63.5 66 11.2 52.1 17.88 0.704
20:57 1019 30.09 848 25.04 17.2 63 67 11.2 52.1 17.61 0.693
20:58 1019 30.09 848 25.04 17 62.5 68 11 51.8 17.34 0.683
20:59 1019 30.09 848 25.04 16.7 62.1 68 10.9 51.6 17.17 0.676
21:00 1019 30.09 848 25.04 16.6 61.9 69 10.9 51.7 17 0.669
21:01 1019 30.09 848 25.04 16.4 61.5 69 10.7 51.3 16.8 0.661
21:02 1019 30.09 848 25.04 16.3 61.3 69 10.7 51.2 16.66 0.656
21:03 1019 30.09 848 25.04 16.2 61.1 69 10.6 51.1 16.56 0.652
21:04 1019 30.09 848 25.04 16.1 61 69 10.6 51 16.47 0.648
21:05 1019 30.09 848 25.04 16 60.8 69 10.5 50.9 16.38 0.645
21:06 1019 30.09 848 25.04 15.9 60.6 70 10.5 51 16.29 0.641
21:07 1019 30.09 848 25.04 15.8 60.4 70 10.4 50.7 16.15 0.636
21:08 1019 30.09 848 25.04 15.6 60.1 71 10.3 50.6 15.97 0.629
21:09 1019 30.09 848 25.04 15.4 59.8 71 10.2 50.4 15.78 0.621
21:10 1019 30.09 848 25.04 15.3 59.5 71 10 50 15.6 0.614
21:11 1019 30.09 848 25.04 15.1 59.2 71 9.8 49.7 15.48 0.609
21:12 1019 30.09 848 25.04 15 59 71 9.7 49.5 15.3 0.602
21:13 1019 30.09 848 25.04 14.8 58.7 70 9.5 49 15.21 0.599
21:14 1019 30.09 848 25.04 14.7 58.4 71 9.5 49 15.03 0.592
21:15 1019 30.09 848 25.04 14.5 58.2 71 9.4 48.9 14.9 0.587
21:16 1019 30.09 848 25.04 14.4 58 71 9.3 48.8 14.8 0.583
21:17 1019 30.09 848 25.04 14.4 57.8 72 9.4 48.9 14.68 0.578
21:18 1019 30.09 848 25.04 14.2 57.6 73 9.4 49 14.63 0.576
21:19 1019 30.09 848 25.04 14.1 57.5 72 9.3 48.7 14.46 0.569
21:20 1019 30.09 848 25.04 14.1 57.3 71 9 48.3 14.37 0.566
21:21 1019 30.09 848 25.04 14.1 57.3 71 9 48.1 14.33 0.564
21:22 1019 30.09 848 25.04 14 57.3 70 8.8 47.8 14.35 0.565
21:23 1019 30.09 848 25.04 14 57.2 71 8.8 47.9 14.33 0.564
21:24 1019 30.09 848 25.04 14 57.1 71 8.8 47.8 14.27 0.562
21:25 1019 30.09 848 25.04 13.9 57.1 71 8.9 48 14.28 0.562
21:26 1019 30.09 848 25.04 13.8 56.9 72 9 48.1 14.2 0.559
21:27 1019 30.09 848 25.04 13.7 56.6 73 9 48.2 14.05 0.553
21:28 1019 30.09 848 25.04 13.5 56.3 73 8.8 47.9 13.84 0.545
21:29 1019 30.09 848 25.04 13.4 56.1 72 8.6 47.4 13.75 0.541
21:30 1019 30.09 848 25.04 13.4 56 73 8.6 47.5 13.7 0.539
21:31 1019 30.09 848 25.04 13.4 56 73 8.6 47.5 13.69 0.539
21:32 1019 30.09 848 25.04 13.3 56 73 8.6 47.6 13.65 0.537
21:33 1019 30.09 848 25.04 13.3 55.9 73 8.6 47.5 13.58 0.535
21:34 1019 30.09 848 25.04 13.2 55.7 74 8.7 47.6 13.51 0.532
21:35 1019 30.09 848 25.04 13.1 55.5 75 8.7 47.7 13.41 0.528
21:36 1019 30.09 848 25.04 12.9 55.3 75 8.6 47.5 13.3 0.524
21:37 1019 30.09 848 25.04 12.8 55 75 8.6 47.5 13.14 0.517
21:38 1019 30.09 848 25.04 12.7 54.8 76 8.6 47.5 13.06 0.514
21:39 1019 30.09 848 25.04 12.6 54.7 77 8.6 47.5 12.95 0.51
21:40 1019 30.09 849 25.07 12.5 54.5 77 8.6 47.4 12.9 0.508
21:41 1019 30.09 848 25.04 12.5 54.5 77 8.6 47.4 12.86 0.506
21:42 1019 30.09 848 25.04 12.5 54.4 76 8.4 47.2 12.84 0.506
21:43 1019 30.09 848 25.04 12.4 54.4 76 8.4 47.2 12.78 0.503
21:44 1019 30.09 849 25.07 12.4 54.4 77 8.5 47.3 12.79 0.504
21:45 1019 30.09 849 25.07 12.4 54.4 77 8.5 47.2 12.72 0.501
21:46 1019 30.09 849 25.07 12.5 54.4 76 8.4 47.1 12.75 0.502
21:47 1019 30.09 849 25.07 12.5 54.5 75 8.2 46.8 12.86 0.506
21:48 1019 30.09 849 25.07 12.7 54.9 75 8.5 47.2 13.04 0.513
21:49 1019 30.09 849 25.07 12.8 55.1 75 8.6 47.5 13.13 0.517
21:50 1019 30.09 849 25.07 12.9 55.1 76 8.7 47.7 13.14 0.517
21:51 1019 30.09 849 25.07 12.8 55 76 8.8 47.8 13.11 0.516
21:52 1019 30.09 849 25.07 12.8 55 75 8.6 47.4 13.07 0.515
21:53 1019 30.09 849 25.07 12.8 55 74 8.4 47.1 13.1 0.516
21:54 1019 30.09 849 25.07 13 55.4 74 8.5 47.2 13.28 0.523
21:55 1019 30.09 849 25.07 13.1 55.5 73 8.4 47.2 13.36 0.526
21:56 1019 30.09 849 25.07 13.1 55.7 73 8.5 47.3 13.41 0.528
21:57 1019 30.09 849 25.07 13.2 55.7 73 8.5 47.4 13.44 0.529
21:58 1019 30.09 849 25.07 13.2 55.7 73 8.5 47.3 13.46 0.53
21:59 1019 30.09 849 25.07 13.2 55.8 72 8.4 47.1 13.44 0.529
22:00 1019 30.09 849 25.07 13.3 55.9 72 8.3 46.9 13.51 0.532
22:01 1019 30.09 849 25.07 13.4 56 71 8.2 46.7 13.57 0.534
22:02 1019 30.09 849 25.07 13.4 56.2 70 8.1 46.6 13.6 0.535
22:03 1020 30.12 849 25.07 13.5 56.3 69 8 46.3 13.74 0.541
22:04 1019 30.09 849 25.07 13.6 56.5 69 8 46.4 13.88 0.546
22:05 1019 30.09 849 25.07 13.8 56.8 68 7.9 46.3 13.96 0.55
22:06 1019 30.09 849 25.07 13.9 56.9 68 8.1 46.5 14.05 0.553
22:07 1020 30.12 849 25.07 13.9 57 69 8.2 46.8 14.04 0.553
22:08 1020 30.12 849 25.07 13.8 56.8 69 8.2 46.8 13.99 0.551
22:09 1020 30.12 849 25.07 13.7 56.6 69 8.1 46.6 13.91 0.548
22:10 1020 30.12 849 25.07 13.6 56.5 69 8.1 46.5 13.93 0.548
22:11 1020 30.12 849 25.07 13.6 56.4 69 8.1 46.6 13.87 0.546
22:12 1020 30.12 849 25.07 13.5 56.4 70 8.2 46.8 13.89 0.547
22:13 1020 30.12 849 25.07 13.4 56.2 70 8.2 46.7 13.74 0.541
22:14 1020 30.12 849 25.07 13.3 55.9 70 8 46.4 13.65 0.537
22:15 1020 30.12 849 25.07 13.2 55.8 70 7.9 46.2 13.57 0.534
22:16 1020 30.12 849 25.07 13.2 55.8 70 7.9 46.1 13.56 0.534
22:17 1020 30.12 849 25.07 13.2 55.8 69 7.7 45.8 13.59 0.535
22:18 1020 30.12 849 25.07 13.4 56 68 7.5 45.6 13.65 0.537
22:19 1020 30.12 849 25.07 13.6 56.4 66 7.4 45.4 13.83 0.544
22:20 1020 30.12 849 25.07 13.8 56.8 66 7.5 45.5 14.03 0.552
22:21 1020 30.12 849 25.07 13.9 56.9 65 7.4 45.3 14.17 0.558
22:22 1020 30.12 849 25.07 13.9 57 65 7.6 45.7 14.16 0.557
22:23 1020 30.12 849 25.07 13.9 57 66 7.7 45.9 14.19 0.559
22:24 1020 30.12 849 25.07 13.9 56.9 67 7.8 46 14.13 0.556
22:25 1020 30.12 849 25.07 13.8 56.8 66 7.6 45.7 14.11 0.556
22:26 1020 30.12 849 25.07 13.8 56.8 66 7.6 45.7 14.08 0.554
22:27 1020 30.12 849 25.07 13.8 56.9 65 7.5 45.5 14.17 0.558
22:28 1020 30.12 849 25.07 13.9 57 64 7.4 45.3 14.21 0.559
22:29 1020 30.12 849 25.07 14 57.2 63 7.2 45 14.34 0.565
22:30 1020 30.12 849 25.07 14.2 57.5 62 7.1 44.8 14.47 0.57
22:31 1020 30.12 849 25.07 14.3 57.7 62 7.3 45.1 14.56 0.573
22:32 1020 30.12 849 25.07 14.3 57.8 62 7.3 45.2 14.61 0.575
22:33 1020 30.12 849 25.07 14.4 57.9 62 7.3 45.1 14.67 0.578
22:34 1020 30.12 849 25.07 14.4 57.9 63 7.5 45.5 14.69 0.578
22:35 1020 30.12 849 25.07 14.3 57.8 63 7.4 45.4 14.63 0.576
22:36 1020 30.12 849 25.07 14.3 57.7 63 7.4 45.3 14.56 0.573
22:37 1020 30.12 849 25.07 14.2 57.6 63 7.4 45.3 14.56 0.573
22:38 1020 30.12 849 25.07 14.2 57.5 63 7.4 45.3 14.51 0.571
22:39 1020 30.12 849 25.07 14.2 57.5 63 7.3 45.1 14.47 0.57
22:40 1020 30.12 849 25.07 14.1 57.4 63 7.3 45.1 14.43 0.568
22:41 1020 30.12 849 25.07 14.2 57.5 63 7.2 45 14.52 0.572
22:42 1020 30.12 849 25.07 14.2 57.6 62 7.2 45 14.55 0.573
22:43 1020 30.12 849 25.07 14.3 57.7 62 7.2 44.9 14.56 0.573
22:44 1020 30.12 849 25.07 14.3 57.7 62 7.2 45 14.6 0.575
22:45 1020 30.12 849 25.07 14.3 57.8 62 7.1 44.8 14.67 0.578
22:46 1020 30.12 849 25.07 14.4 57.9 61 7 44.5 14.7 0.579
22:47 1020 30.12 849 25.07 14.5 58.2 61 7.1 44.8 14.82 0.583
22:48 1020 30.12 849 25.07 14.7 58.4 59 6.9 44.5 14.95 0.589
22:49 1020 30.12 849 25.07 14.8 58.6 60 7.1 44.8 15.06 0.593
22:50 1020 30.12 849 25.07 14.8 58.7 59 6.9 44.5 15.09 0.594
22:51 1020 30.12 849 25.07 14.9 58.9 58 6.8 44.2 15.23 0.6
22:52 1020 30.12 849 25.07 15 59.1 58 6.9 44.4 15.34 0.604
22:53 1020 30.12 849 25.07 15.1 59.1 58 6.8 44.3 15.38 0.606
22:54 1020 30.12 849 25.07 15.1 59.2 58 6.9 44.5 15.43 0.607
22:55 1020 30.12 849 25.07 15.2 59.3 58 6.9 44.5 15.49 0.61
22:56 1020 30.12 849 25.07 15.1 59.2 57 6.9 44.3 15.47 0.609
22:57 1020 30.12 849 25.07 15.1 59.2 57 6.6 43.9 15.43 0.607
22:58 1020 30.12 849 25.07 15.1 59.2 57 6.7 44.1 15.44 0.608
22:59 1020 30.12 849 25.07 15.2 59.3 57 6.7 44.1 15.48 0.609
23:00 1020 30.12 849 25.07 15.2 59.4 56 6.6 43.9 15.51 0.611
23:01 1020 30.12 849 25.07 15.2 59.4 57 6.9 44.3 15.54 0.612
23:02 1020 30.12 849 25.07 15.2 59.3 58 7 44.5 15.5 0.61
23:03 1020 30.12 849 25.07 15 59.1 58 6.8 44.3 15.4 0.606
23:04 1020 30.12 849 25.07 15 59.1 57 6.8 44.2 15.36 0.605
23:05 1020 30.12 849 25.07 15 59.1 58 6.9 44.5 15.36 0.605
23:06 1020 30.12 849 25.07 14.9 58.9 58 6.9 44.4 15.27 0.601
23:07 1020 30.12 849 25.07 14.9 58.8 59 7 44.7 15.24 0.6
23:08 1020 30.12 849 25.07 14.8 58.6 60 7 44.6 15.15 0.596
23:09 1020 30.12 849 25.07 14.7 58.4 59 6.9 44.4 15.08 0.594
23:10 1020 30.12 849 25.07 14.7 58.5 58 6.7 44.1 15.04 0.592
23:11 1020 30.12 849 25.07 14.7 58.5 59 6.9 44.4 15.03 0.592
23:12 1020 30.12 849 25.07 14.7 58.4 59 6.9 44.4 14.95 0.589
23:13 1020 30.12 849 25.07 14.6 58.2 60 6.9 44.4 14.9 0.587
23:14 1020 30.12 849 25.07 14.5 58 61 7.1 44.8 14.79 0.582
23:15 1020 30.12 849 25.07 14.3 57.7 61 7.1 44.7 14.68 0.578
23:16 1020 30.12 849 25.07 14.2 57.6 62 7 44.7 14.57 0.574
23:17 1020 30.12 849 25.07 14.2 57.5 62 7.1 44.8 14.51 0.571
23:18 1020 30.12 849 25.07 14.1 57.3 63 7.3 45.1 14.46 0.569
23:19 1020 30.12 849 25.07 14 57.1 64 7.4 45.4 14.32 0.564
23:20 1020 30.12 849 25.07 13.7 56.7 67 7.7 45.8 14.18 0.558
23:21 1020 30.12 849 25.07 13.5 56.2 68 7.7 45.9 13.91 0.548
23:22 1020 30.12 849 25.07 13.2 55.8 69 7.6 45.7 13.68 0.539
23:23 1020 30.12 849 25.07 13.1 55.6 68 7.5 45.4 13.53 0.533
23:24 1020 30.12 849 25.07 13.1 55.6 68 7.4 45.3 13.49 0.531
23:25 1020 30.12 849 25.07 13.1 55.5 68 7.4 45.3 13.46 0.53
23:26 1020 30.12 849 25.07 13.1 55.6 67 7.2 45 13.43 0.529
23:27 1020 30.12 849 25.07 13.1 55.6 67 7.1 44.7 13.44 0.529
23:28 1020 30.12 849 25.07 13.1 55.6 67 7.1 44.8 13.45 0.53
23:29 1020 30.12 849 25.07 13.2 55.7 66 7 44.7 13.51 0.532
23:30 1020 30.12 849 25.07 13.2 55.8 65 6.8 44.2 13.49 0.531
23:31 1020 30.12 849 25.07 13.3 55.9 64 6.7 44 13.59 0.535
23:32 1020 30.12 849 25.07 13.4 56.2 63 6.6 43.9 13.65 0.537
23:33 1020 30.12 849 25.07 13.5 56.4 62 6.4 43.5 13.76 0.542
23:34 1020 30.12 849 25.07 13.7 56.7 61 6.4 43.4 13.93 0.548
23:35 1020 30.12 849 25.07 13.9 57 61 6.5 43.7 14.06 0.554
23:36 1020 30.12 849 25.07 13.9 57.1 61 6.6 44 14.11 0.556
23:37 1020 30.12 849 25.07 13.9 57 62 6.7 44.1 14.14 0.557
23:38 1020 30.12 849 25.07 13.8 56.9 59 6 42.8 14.14 0.557
23:39 1020 30.12 849 25.07 14.1 57.4 58 6.2 43.1 14.34 0.565
23:40 1020 30.12 849 25.07 14.4 57.8 56 5.7 42.3 14.52 0.572
23:41 1020 30.12 849 25.07 14.6 58.4 55 5.9 42.6 14.81 0.583
23:42 1020 30.12 849 25.07 14.8 58.7 55 6 42.7 14.98 0.59
23:43 1020 30.12 849 25.07 15 59 54 5.8 42.5 15.12 0.595
23:44 1020 30.12 849 25.07 15.1 59.2 54 6 42.8 15.29 0.602
23:45 1020 30.12 849 25.07 15.1 59.2 54 6.1 42.9 15.31 0.603
23:46 1020 30.12 849 25.07 15.1 59.1 54 5.9 42.6 15.31 0.603
23:47 1020 30.12 849 25.07 15.2 59.3 53 5.8 42.5 15.4 0.606
23:48 1020 30.12 849 25.07 15.2 59.4 52 5.6 42 15.46 0.609
23:49 1020 30.12 849 25.07 15.3 59.5 52 5.6 42.1 15.57 0.613
23:50 1020 30.12 849 25.07 15.4 59.7 52 5.7 42.2 15.63 0.615
23:51 1020 30.12 849 25.07 15.4 59.7 54 6.2 43.2 15.63 0.615
23:52 1020 30.12 849 25.07 15.3 59.5 55 6.4 43.5 15.62 0.615
23:53 1020 30.12 849 25.07 15.2 59.3 55 6.2 43.1 15.49 0.61
23:54 1020 30.12 849 25.07 15.1 59.1 56 6.5 43.7 15.45 0.608
23:55 1020 30.12 849 25.07 14.9 58.9 56 6.4 43.6 15.28 0.602
23:56 1020 30.12 849 25.07 14.7 58.5 58 6.5 43.8 15.1 0.594
23:57 1020 30.12 849 25.07 14.5 58.1 58 6.4 43.6 14.9 0.587
23:58 1020 30.12 849 25.07 14.4 57.9 59 6.5 43.8 14.77 0.581
23:59 1020 30.12 849 25.07 14.2 57.6 59 6.4 43.6 14.65 0.577
24:00 1020 30.12 849 25.07 14.1 57.4 60 6.6 43.9 14.5 0.571